Observation data for Adrian on 02/24/2021      Previous  Date  Next       Current Mesonet Observations  Soil Data  Daily Summary Page  Observations in Plain Language
KAD1 240600Z 35015KT 09/M06 A2994 RMK A01 T00921063  RH  033%=      5-min Rain = 0
KAD1 240601Z 36015KT 09/M06 A2994 RMK A01 T00911063  RH  033%=      5-min Rain = 0
KAD1 240602Z 00019G24KT 09/M06 A2994 RMK A01 T00901062  RH  034%=      5-min Rain = 0
KAD1 240603Z 00016G21KT 09/M06 A2994 RMK A01 T00911061  RH  034%=      5-min Rain = 0
KAD1 240604Z 36015KT 09/M06 A2994 RMK A01 T00901061  RH  034%=      5-min Rain = 0
KAD1 240605Z 01018KT 09/M06 A2994 RMK A01 T00881060  RH  035%=      5-min Rain = 0
KAD1 240606Z 01019G24KT 09/M06 A2994 RMK A01 T00871058  RH  035%=      5-min Rain = 0
KAD1 240607Z 01016KT 09/M06 A2995 RMK A01 T00861058  RH  035%=      5-min Rain = 0
KAD1 240608Z 01015KT 09/M06 A2995 RMK A01 T00851058  RH  036%=      5-min Rain = 0
KAD1 240609Z 01016KT 08/M06 A2995 RMK A01 T00831058  RH  036%=      5-min Rain = 0
KAD1 240610Z 01016KT 08/M06 A2995 RMK A01 T00831057  RH  037%=      5-min Rain = 0
KAD1 240611Z 00016KT 08/M06 A2995 RMK A01 T00821056  RH  037%=      5-min Rain = 0
KAD1 240612Z 00016KT 08/M06 A2995 RMK A01 T00811056  RH  037%=      5-min Rain = 0
KAD1 240613Z 01016KT 08/M06 A2995 RMK A01 T00821056  RH  037%=      5-min Rain = 0
KAD1 240614Z 01017KT 08/M06 A2996 RMK A01 T00821056  RH  037%=      5-min Rain = 0
KAD1 240615Z 01018KT 08/M06 A2996 RMK A01 T00821056  RH  037%=      5-min Rain = 0
KAD1 240616Z 01020KT 08/M06 A2996 RMK A01 T00821055  RH  037%=      5-min Rain = 0
KAD1 240617Z 01018KT 08/M05 A2996 RMK A01 T00821054  RH  038%=      5-min Rain = 0
KAD1 240618Z 02016KT 08/M05 A2996 RMK A01 T00821054  RH  038%=      5-min Rain = 0
KAD1 240619Z 01015KT 08/M06 A2996 RMK A01 T00801055  RH  038%=      5-min Rain = 0
KAD1 240620Z 01018KT 08/M06 A2996 RMK A01 T00791055  RH  038%=      5-min Rain = 0
KAD1 240621Z 01020KT 08/M06 A2996 RMK A01 T00781055  RH  038%=      5-min Rain = 0
KAD1 240622Z 02019KT 08/M05 A2996 RMK A01 T00791053  RH  039%=      5-min Rain = 0
KAD1 240623Z 02018KT 08/M05 A2996 RMK A01 T00791052  RH  039%=      5-min Rain = 0
KAD1 240624Z 02017KT 08/M05 A2996 RMK A01 T00781052  RH  039%=      5-min Rain = 0
KAD1 240625Z 02017KT 08/M05 A2996 RMK A01 T00761052  RH  040%=      5-min Rain = 0
KAD1 240626Z 01018KT 08/M05 A2996 RMK A01 T00761052  RH  040%=      5-min Rain = 0
KAD1 240627Z 01017KT 08/M05 A2996 RMK A01 T00751052  RH  040%=      5-min Rain = 0
KAD1 240628Z 01017KT 08/M05 A2997 RMK A01 T00751052  RH  040%=      5-min Rain = 0
KAD1 240629Z 01017KT 08/M05 A2997 RMK A01 T00751052  RH  040%=      5-min Rain = 0
KAD1 240630Z 01017KT 08/M05 A2997 RMK A01 T00751051  RH  040%=      5-min Rain = 0
KAD1 240631Z 02022KT 08/M05 A2997 RMK A01 T00751051  RH  040%=      5-min Rain = 0
KAD1 240632Z 02019KT 08/M05 A2997 RMK A01 T00751050  RH  041%=      5-min Rain = 0
KAD1 240633Z 02020KT 08/M05 A2997 RMK A01 T00751050  RH  041%=      5-min Rain = 0
KAD1 240634Z 02017KT 08/M05 A2997 RMK A01 T00751050  RH  041%=      5-min Rain = 0
KAD1 240635Z 02017KT 07/M05 A2997 RMK A01 T00721051  RH  041%=      5-min Rain = 0
KAD1 240636Z 02016KT 07/M05 A2997 RMK A01 T00711051  RH  042%=      5-min Rain = 0
KAD1 240637Z 02018KT 07/M05 A2997 RMK A01 T00701050  RH  042%=      5-min Rain = 0
KAD1 240638Z 02020KT 07/M05 A2997 RMK A01 T00701050  RH  042%=      5-min Rain = 0
KAD1 240639Z 02020G25KT 07/M05 A2997 RMK A01 T00701049  RH  042%=      5-min Rain = 0
KAD1 240640Z 02019G24KT 07/M05 A2997 RMK A01 T00711049  RH  042%=      5-min Rain = 0
KAD1 240641Z 02019KT 07/M05 A2997 RMK A01 T00701049  RH  042%=      5-min Rain = 0
KAD1 240642Z 03022KT 07/M05 A2998 RMK A01 T00701049  RH  043%=      5-min Rain = 0
KAD1 240643Z 02021KT 07/M05 A2998 RMK A01 T00711048  RH  042%=      5-min Rain = 0
KAD1 240644Z 02021KT 07/M05 A2998 RMK A01 T00721048  RH  042%=      5-min Rain = 0
KAD1 240645Z 03022KT 07/M05 A2998 RMK A01 T00721048  RH  042%=      5-min Rain = 0
KAD1 240646Z 03019KT 07/M05 A2998 RMK A01 T00721048  RH  042%=      5-min Rain = 0
KAD1 240647Z 02017KT 07/M05 A2998 RMK A01 T00711049  RH  042%=      5-min Rain = 0
KAD1 240648Z 02018KT 07/M05 A2998 RMK A01 T00701049  RH  043%=      5-min Rain = 0
KAD1 240649Z 02019KT 07/M05 A2998 RMK A01 T00691048  RH  043%=      5-min Rain = 0
KAD1 240650Z 03017KT 07/M05 A2999 RMK A01 T00691048  RH  043%=      5-min Rain = 0
KAD1 240651Z 03015KT 07/M05 A2999 RMK A01 T00681048  RH  043%=      5-min Rain = 0
KAD1 240652Z 03016KT 07/M05 A2999 RMK A01 T00671048  RH  044%=      5-min Rain = 0
KAD1 240653Z 03015KT 07/M05 A2999 RMK A01 T00661048  RH  044%=      5-min Rain = 0
KAD1 240654Z 02016KT 07/M05 A2999 RMK A01 T00651049  RH  044%=      5-min Rain = 0
KAD1 240655Z 03015KT 07/M05 A2999 RMK A01 T00651048  RH  044%=      5-min Rain = 0
KAD1 240656Z 02017KT 06/M05 A2999 RMK A01 T00641048  RH  045%=      5-min Rain = 0
KAD1 240657Z 03018KT 07/M05 A2999 RMK A01 T00661047  RH  044%=      5-min Rain = 0
KAD1 240658Z 02017KT 07/M05 A30 RMK A01 T00661047  RH  044%=      5-min Rain = 0
KAD1 240659Z 02017KT 07/M05 A30 RMK A01 T00651047  RH  044%=      5-min Rain = 0
KAD1 240700Z 03018KT 07/M05 A30 RMK A01 T00651047  RH  045%=      5-min Rain = 0
KAD1 240701Z 03018KT 07/M05 A30 RMK A01 T00651047  RH  045%=      5-min Rain = 0
KAD1 240702Z 03019KT 07/M05 A30 RMK A01 T00651047  RH  045%=      5-min Rain = 0
KAD1 240703Z 02019KT 07/M05 A30 RMK A01 T00651046  RH  045%=      5-min Rain = 0
KAD1 240704Z 02018KT 07/M05 A30 RMK A01 T00651046  RH  045%=      5-min Rain = 0
KAD1 240705Z 03017KT 07/M05 A30 RMK A01 T00661046  RH  045%=      5-min Rain = 0
KAD1 240706Z 02016KT 07/M05 A30 RMK A01 T00651046  RH  045%=      5-min Rain = 0
KAD1 240707Z 02018KT 06/M05 A3001 RMK A01 T00641047  RH  045%=      5-min Rain = 0
KAD1 240708Z 03014G19KT 06/M05 A3001 RMK A01 T00631047  RH  045%=      5-min Rain = 0
KAD1 240709Z 02016KT 06/M05 A3001 RMK A01 T00621047  RH  045%=      5-min Rain = 0
KAD1 240710Z 02016KT 06/M05 A3001 RMK A01 T00621046  RH  046%=      5-min Rain = 0
KAD1 240711Z 02017KT 06/M05 A3001 RMK A01 T00621046  RH  046%=      5-min Rain = 0
KAD1 240712Z 02017KT 06/M05 A3001 RMK A01 T00621046  RH  046%=      5-min Rain = 0
KAD1 240713Z 03016KT 06/M05 A3001 RMK A01 T00621046  RH  046%=      5-min Rain = 0
KAD1 240714Z 03017KT 06/M05 A3001 RMK A01 T00621046  RH  046%=      5-min Rain = 0
KAD1 240715Z 03018KT 06/M05 A3001 RMK A01 T00611046  RH  046%=      5-min Rain = 0
KAD1 240716Z 03018KT 06/M05 A3001 RMK A01 T00611046  RH  046%=      5-min Rain = 0
KAD1 240717Z 03020KT 06/M05 A3001 RMK A01 T00611046  RH  046%=      5-min Rain = 0
KAD1 240718Z 03020KT 06/M05 A3001 RMK A01 T00611045  RH  046%=      5-min Rain = 0
KAD1 240719Z 03018KT 06/M05 A3001 RMK A01 T00611045  RH  046%=      5-min Rain = 0
KAD1 240720Z 02017KT 06/M05 A3001 RMK A01 T00601045  RH  047%=      5-min Rain = 0
KAD1 240721Z 03019KT 06/M05 A3001 RMK A01 T00601045  RH  047%=      5-min Rain = 0
KAD1 240722Z 03018KT 06/M05 A3001 RMK A01 T00601045  RH  047%=      5-min Rain = 0
KAD1 240723Z 03019KT 06/M05 A3001 RMK A01 T00591045  RH  047%=      5-min Rain = 0
KAD1 240724Z 03016KT 06/M05 A3001 RMK A01 T00591045  RH  047%=      5-min Rain = 0
KAD1 240725Z 02014KT 06/M05 A3001 RMK A01 T00581045  RH  047%=      5-min Rain = 0
KAD1 240726Z 02016KT 06/M05 A3001 RMK A01 T00581045  RH  048%=      5-min Rain = 0
KAD1 240727Z 03015KT 06/M05 A3001 RMK A01 T00571045  RH  048%=      5-min Rain = 0
KAD1 240728Z 02014KT 06/M05 A3001 RMK A01 T00571045  RH  048%=      5-min Rain = 0
KAD1 240729Z 02014KT 06/M05 A3001 RMK A01 T00561046  RH  048%=      5-min Rain = 0
KAD1 240730Z 02014KT 06/M05 A3001 RMK A01 T00551046  RH  048%=      5-min Rain = 0
KAD1 240731Z 02015KT 06/M05 A3001 RMK A01 T00551045  RH  048%=      5-min Rain = 0
KAD1 240732Z 03013KT 06/M05 A3001 RMK A01 T00551045  RH  048%=      5-min Rain = 0
KAD1 240733Z 03014KT 05/M05 A3002 RMK A01 T00541046  RH  049%=      5-min Rain = 0
KAD1 240734Z 02017KT 05/M05 A3002 RMK A01 T00541045  RH  049%=      5-min Rain = 0
KAD1 240735Z 03018KT 06/M04 A3001 RMK A01 T00551044  RH  049%=      5-min Rain = 0
KAD1 240736Z 03017KT 06/M04 A3002 RMK A01 T00561044  RH  049%=      5-min Rain = 0
KAD1 240737Z 03016KT 06/M04 A3002 RMK A01 T00561044  RH  048%=      5-min Rain = 0
KAD1 240738Z 03017KT 06/M04 A3002 RMK A01 T00551044  RH  049%=      5-min Rain = 0
KAD1 240739Z 03018KT 06/M04 A3001 RMK A01 T00551044  RH  049%=      5-min Rain = 0
KAD1 240740Z 03018KT 06/M04 A3001 RMK A01 T00551044  RH  049%=      5-min Rain = 0
KAD1 240741Z 03018KT 05/M04 A3001 RMK A01 T00541044  RH  049%=      5-min Rain = 0
KAD1 240742Z 03017KT 05/M04 A3001 RMK A01 T00541044  RH  049%=      5-min Rain = 0
KAD1 240743Z 03018KT 05/M04 A3001 RMK A01 T00541043  RH  050%=      5-min Rain = 0
KAD1 240744Z 03019KT 05/M04 A3001 RMK A01 T00531043  RH  050%=      5-min Rain = 0
KAD1 240745Z 02020KT 05/M04 A3001 RMK A01 T00541043  RH  050%=      5-min Rain = 0
KAD1 240746Z 03022KT 05/M04 A3001 RMK A01 T00531043  RH  050%=      5-min Rain = 0
KAD1 240747Z 03021KT 05/M04 A3001 RMK A01 T00541042  RH  050%=      5-min Rain = 0
KAD1 240748Z 03019KT 05/M04 A3002 RMK A01 T00541042  RH  050%=      5-min Rain = 0
KAD1 240749Z 03019KT 05/M04 A3002 RMK A01 T00541043  RH  050%=      5-min Rain = 0
KAD1 240750Z 02017KT 05/M04 A3002 RMK A01 T00531042  RH  050%=      5-min Rain = 0
KAD1 240751Z 03017KT 05/M04 A3002 RMK A01 T00521043  RH  050%=      5-min Rain = 0
KAD1 240752Z 03019KT 05/M04 A3002 RMK A01 T00511043  RH  051%=      5-min Rain = 0
KAD1 240753Z 03019G25KT 05/M04 A3002 RMK A01 T00521042  RH  051%=      5-min Rain = 0
KAD1 240754Z 03018KT 05/M04 A3002 RMK A01 T00521042  RH  051%=      5-min Rain = 0
KAD1 240755Z 03018KT 05/M04 A3003 RMK A01 T00511042  RH  051%=      5-min Rain = 0
KAD1 240756Z 03020KT 05/M04 A3003 RMK A01 T00511042  RH  051%=      5-min Rain = 0
KAD1 240757Z 03017KT 05/M04 A3003 RMK A01 T00511041  RH  051%=      5-min Rain = 0
KAD1 240758Z 02016KT 05/M04 A3003 RMK A01 T00511042  RH  051%=      5-min Rain = 0
KAD1 240759Z 03018KT 05/M04 A3003 RMK A01 T00501042  RH  051%=      5-min Rain = 0
KAD1 240800Z 02018KT 05/M04 A3003 RMK A01 T00501042  RH  052%=      5-min Rain = 0
KAD1 240801Z 02016KT 05/M04 A3003 RMK A01 T00501042  RH  052%=      5-min Rain = 0
KAD1 240802Z 02016KT 05/M04 A3003 RMK A01 T00501042  RH  052%=      5-min Rain = 0
KAD1 240803Z 02019KT 05/M04 A3003 RMK A01 T00491042  RH  052%=      5-min Rain = 0
KAD1 240804Z 02017KT 05/M04 A3003 RMK A01 T00491041  RH  052%=      5-min Rain = 0
KAD1 240805Z 02018KT 05/M04 A3003 RMK A01 T00491041  RH  052%=      5-min Rain = 0
KAD1 240806Z 02021KT 05/M04 A3003 RMK A01 T00481041  RH  052%=      5-min Rain = 0
KAD1 240807Z 02020KT 05/M04 A3003 RMK A01 T00481041  RH  052%=      5-min Rain = 0
KAD1 240808Z 03020KT 05/M04 A3003 RMK A01 T00481041  RH  052%=      5-min Rain = 0
KAD1 240809Z 03020KT 05/M04 A3003 RMK A01 T00481041  RH  052%=      5-min Rain = 0
KAD1 240810Z 03021KT 05/M04 A3003 RMK A01 T00491040  RH  053%=      5-min Rain = 0
KAD1 240811Z 03021KT 05/M04 A3003 RMK A01 T00481040  RH  053%=      5-min Rain = 0
KAD1 240812Z 03020KT 05/M04 A3003 RMK A01 T00481040  RH  053%=      5-min Rain = 0
KAD1 240813Z 03020KT 05/M04 A3003 RMK A01 T00481040  RH  053%=      5-min Rain = 0
KAD1 240814Z 03021KT 05/M04 A3003 RMK A01 T00481040  RH  053%=      5-min Rain = 0
KAD1 240815Z 03020KT 05/M04 A3003 RMK A01 T00481040  RH  053%=      5-min Rain = 0
KAD1 240816Z 03021KT 05/M04 A3003 RMK A01 T00471040  RH  053%=      5-min Rain = 0
KAD1 240817Z 03021KT 05/M04 A3003 RMK A01 T00471040  RH  053%=      5-min Rain = 0
KAD1 240818Z 03018KT 05/M04 A3003 RMK A01 T00461040  RH  053%=      5-min Rain = 0
KAD1 240819Z 03019KT 05/M04 A3003 RMK A01 T00451041  RH  054%=      5-min Rain = 0
KAD1 240820Z 03017KT 04/M04 A3003 RMK A01 T00441041  RH  054%=      5-min Rain = 0
KAD1 240821Z 03017KT 04/M04 A3003 RMK A01 T00431041  RH  054%=      5-min Rain = 0
KAD1 240822Z 03019KT 04/M04 A3003 RMK A01 T00431041  RH  055%=      5-min Rain = 0
KAD1 240823Z 03020KT 04/M04 A3003 RMK A01 T00431040  RH  055%=      5-min Rain = 0
KAD1 240824Z 03021KT 04/M04 A3003 RMK A01 T00431041  RH  055%=      5-min Rain = 0
KAD1 240825Z 03018KT 04/M04 A3003 RMK A01 T00431040  RH  055%=      5-min Rain = 0
KAD1 240826Z 03018KT 04/M04 A3003 RMK A01 T00431040  RH  055%=      5-min Rain = 0
KAD1 240827Z 03019KT 04/M04 A3003 RMK A01 T00431040  RH  055%=      5-min Rain = 0
KAD1 240828Z 03018KT 04/M04 A3003 RMK A01 T00431040  RH  055%=      5-min Rain = 0
KAD1 240829Z 03020KT 04/M04 A3003 RMK A01 T00421041  RH  055%=      5-min Rain = 0
KAD1 240830Z 03017KT 04/M04 A3003 RMK A01 T00411041  RH  055%=      5-min Rain = 0
KAD1 240831Z 03019KT 04/M04 A3003 RMK A01 T00401041  RH  055%=      5-min Rain = 0
KAD1 240832Z 03017KT 04/M04 A3003 RMK A01 T00401041  RH  056%=      5-min Rain = 0
KAD1 240833Z 03017KT 04/M04 A3003 RMK A01 T00391042  RH  056%=      5-min Rain = 0
KAD1 240834Z 03015KT 04/M04 A3003 RMK A01 T00381041  RH  056%=      5-min Rain = 0
KAD1 240835Z 03017KT 04/M04 A3003 RMK A01 T00371042  RH  056%=      5-min Rain = 0
KAD1 240836Z 03018KT 04/M04 A3003 RMK A01 T00371041  RH  057%=      5-min Rain = 0
KAD1 240837Z 03018KT 04/M04 A3003 RMK A01 T00371041  RH  057%=      5-min Rain = 0
KAD1 240838Z 03017G22KT 04/M04 A3003 RMK A01 T00381040  RH  056%=      5-min Rain = 0
KAD1 240839Z 03017G22KT 04/M04 A3003 RMK A01 T00381041  RH  056%=      5-min Rain = 0
KAD1 240840Z 03016KT 04/M04 A3003 RMK A01 T00371042  RH  056%=      5-min Rain = 0
KAD1 240841Z 03019KT 04/M04 A3003 RMK A01 T00361041  RH  057%=      5-min Rain = 0
KAD1 240842Z 03019KT 04/M04 A3003 RMK A01 T00371041  RH  057%=      5-min Rain = 0
KAD1 240843Z 03020G25KT 04/M04 A3003 RMK A01 T00371041  RH  057%=      5-min Rain = 0
KAD1 240844Z 03021KT 04/M04 A3003 RMK A01 T00381041  RH  057%=      5-min Rain = 0
KAD1 240845Z 03020KT 04/M04 A3003 RMK A01 T00391041  RH  056%=      5-min Rain = 0
KAD1 240846Z 03019KT 04/M04 A3003 RMK A01 T00391041  RH  056%=      5-min Rain = 0
KAD1 240847Z 03019KT 04/M04 A3003 RMK A01 T00381041  RH  056%=      5-min Rain = 0
KAD1 240848Z 03021KT 04/M04 A3003 RMK A01 T00371041  RH  056%=      5-min Rain = 0
KAD1 240849Z 03020KT 04/M04 A3003 RMK A01 T00391040  RH  056%=      5-min Rain = 0
KAD1 240850Z 03016KT 04/M04 A3003 RMK A01 T00381041  RH  056%=      5-min Rain = 0
KAD1 240851Z 03017KT 04/M04 A3004 RMK A01 T00361042  RH  056%=      5-min Rain = 0
KAD1 240852Z 04018KT 04/M04 A3004 RMK A01 T00351042  RH  057%=      5-min Rain = 0
KAD1 240853Z 03018KT 04/M04 A3004 RMK A01 T00351042  RH  057%=      5-min Rain = 0
KAD1 240854Z 03018KT 04/M04 A3004 RMK A01 T00351041  RH  057%=      5-min Rain = 0
KAD1 240855Z 03019KT 03/M04 A3004 RMK A01 T00341042  RH  058%=      5-min Rain = 0
KAD1 240856Z 03022KT 04/M04 A3004 RMK A01 T00351041  RH  058%=      5-min Rain = 0
KAD1 240857Z 03017G23KT 04/M04 A3004 RMK A01 T00361040  RH  057%=      5-min Rain = 0
KAD1 240858Z 03016KT 04/M04 A3004 RMK A01 T00361041  RH  057%=      5-min Rain = 0
KAD1 240859Z 03017KT 03/M04 A3004 RMK A01 T00341042  RH  057%=      5-min Rain = 0
KAD1 240900Z 03017KT 03/M04 A3004 RMK A01 T00341042  RH  058%=      5-min Rain = 0
KAD1 240901Z 03019G24KT 03/M04 A3004 RMK A01 T00341042  RH  058%=      5-min Rain = 0
KAD1 240902Z 03022KT 04/M04 A3004 RMK A01 T00351042  RH  057%=      5-min Rain = 0
KAD1 240903Z 03020KT 04/M04 A3005 RMK A01 T00361042  RH  056%=      5-min Rain = 0
KAD1 240904Z 03019KT 04/M04 A3005 RMK A01 T00361043  RH  056%=      5-min Rain = 0
KAD1 240905Z 03019KT 04/M04 A3005 RMK A01 T00351043  RH  056%=      5-min Rain = 0
KAD1 240906Z 03016KT 04/M04 A3005 RMK A01 T00351043  RH  057%=      5-min Rain = 0
KAD1 240907Z 03016KT 03/M04 A3005 RMK A01 T00341043  RH  057%=      5-min Rain = 0
KAD1 240908Z 03015KT 03/M04 A3005 RMK A01 T00331043  RH  057%=      5-min Rain = 0
KAD1 240909Z 03015KT 03/M04 A3005 RMK A01 T00331043  RH  058%=      5-min Rain = 0
KAD1 240910Z 03014KT 03/M04 A3005 RMK A01 T00321043  RH  058%=      5-min Rain = 0
KAD1 240911Z 02014KT 03/M04 A3005 RMK A01 T00311043  RH  058%=      5-min Rain = 0
KAD1 240912Z 03013KT 03/M04 A3006 RMK A01 T00311043  RH  058%=      5-min Rain = 0
KAD1 240913Z 03013KT 03/M04 A3006 RMK A01 T00311043  RH  058%=      5-min Rain = 0
KAD1 240914Z 03013KT 03/M04 A3006 RMK A01 T00301043  RH  059%=      5-min Rain = 0
KAD1 240915Z 02011KT 03/M04 A3006 RMK A01 T00301043  RH  059%=      5-min Rain = 0
KAD1 240916Z 03013KT 03/M04 A3006 RMK A01 T00291043  RH  059%=      5-min Rain = 0
KAD1 240917Z 02012KT 03/M04 A3006 RMK A01 T00291043  RH  059%=      5-min Rain = 0
KAD1 240918Z 02012KT 03/M04 A3006 RMK A01 T00291043  RH  059%=      5-min Rain = 0
KAD1 240919Z 02010KT 03/M04 A3006 RMK A01 T00291043  RH  059%=      5-min Rain = 0
KAD1 240920Z 02011KT 03/M04 A3006 RMK A01 T00291043  RH  059%=      5-min Rain = 0
KAD1 240921Z 02012KT 03/M04 A3006 RMK A01 T00271044  RH  059%=      5-min Rain = 0
KAD1 240922Z 02014KT 03/M04 A3007 RMK A01 T00271044  RH  060%=      5-min Rain = 0
KAD1 240923Z 01013KT 03/M04 A3007 RMK A01 T00271044  RH  060%=      5-min Rain = 0
KAD1 240924Z 01013KT 03/M04 A3007 RMK A01 T00271044  RH  059%=      5-min Rain = 0
KAD1 240925Z 01015KT 03/M04 A3007 RMK A01 T00281044  RH  059%=      5-min Rain = 0
KAD1 240926Z 01014G19KT 03/M05 A3007 RMK A01 T00281045  RH  059%=      5-min Rain = 0
KAD1 240927Z 01014KT 03/M05 A3007 RMK A01 T00281046  RH  058%=      5-min Rain = 0
KAD1 240928Z 02014KT 03/M05 A3007 RMK A01 T00271046  RH  059%=      5-min Rain = 0
KAD1 240929Z 02014KT 03/M05 A3007 RMK A01 T00261046  RH  059%=      5-min Rain = 0
KAD1 240930Z 02014KT 03/M05 A3007 RMK A01 T00271047  RH  058%=      5-min Rain = 0
KAD1 240931Z 02015KT 03/M05 A3007 RMK A01 T00271047  RH  058%=      5-min Rain = 0
KAD1 240932Z 02014KT 03/M05 A3007 RMK A01 T00271048  RH  058%=      5-min Rain = 0
KAD1 240933Z 02013KT 03/M05 A3007 RMK A01 T00271047  RH  058%=      5-min Rain = 0
KAD1 240934Z 02012KT 03/M05 A3007 RMK A01 T00261048  RH  058%=      5-min Rain = 0
KAD1 240935Z 02014KT 03/M05 A3007 RMK A01 T00251049  RH  058%=      5-min Rain = 0
KAD1 240936Z 02014KT 03/M05 A3007 RMK A01 T00251048  RH  058%=      5-min Rain = 0
KAD1 240937Z 02013KT 03/M05 A3007 RMK A01 T00251048  RH  058%=      5-min Rain = 0
KAD1 240938Z 02014KT 03/M05 A3007 RMK A01 T00251049  RH  058%=      5-min Rain = 0
KAD1 240939Z 03014KT 03/M05 A3007 RMK A01 T00251049  RH  058%=      5-min Rain = 0
KAD1 240940Z 02014KT 02/M05 A3007 RMK A01 T00241049  RH  058%=      5-min Rain = 0
KAD1 240941Z 03013KT 02/M05 A3007 RMK A01 T00241050  RH  058%=      5-min Rain = 0
KAD1 240942Z 03014KT 02/M05 A3007 RMK A01 T00231050  RH  058%=      5-min Rain = 0
KAD1 240943Z 02014KT 02/M05 A3008 RMK A01 T00241050  RH  058%=      5-min Rain = 0
KAD1 240944Z 02012KT 03/M05 A3008 RMK A01 T00251050  RH  058%=      5-min Rain = 0
KAD1 240945Z 02011KT 02/M05 A3008 RMK A01 T00241051  RH  058%=      5-min Rain = 0
KAD1 240946Z 03012KT 02/M05 A3008 RMK A01 T00221052  RH  058%=      5-min Rain = 0
KAD1 240947Z 02012KT 02/M05 A3008 RMK A01 T00211052  RH  058%=      5-min Rain = 0
KAD1 240948Z 02010KT 02/M05 A3008 RMK A01 T00221051  RH  058%=      5-min Rain = 0
KAD1 240949Z 02011KT 02/M05 A3008 RMK A01 T00221052  RH  058%=      5-min Rain = 0
KAD1 240950Z 02012KT 02/M05 A3007 RMK A01 T00211053  RH  058%=      5-min Rain = 0
KAD1 240951Z 02012KT 02/M05 A3007 RMK A01 T00211052  RH  059%=      5-min Rain = 0
KAD1 240952Z 02013KT 02/M05 A3007 RMK A01 T00201053  RH  059%=      5-min Rain = 0
KAD1 240953Z 02013KT 02/M05 A3007 RMK A01 T00201052  RH  059%=      5-min Rain = 0
KAD1 240954Z 02013KT 02/M05 A3008 RMK A01 T00191053  RH  059%=      5-min Rain = 0
KAD1 240955Z 03013KT 02/M05 A3008 RMK A01 T00191053  RH  059%=      5-min Rain = 0
KAD1 240956Z 02012KT 02/M05 A3008 RMK A01 T00191053  RH  059%=      5-min Rain = 0
KAD1 240957Z 02012KT 02/M05 A3008 RMK A01 T00191053  RH  059%=      5-min Rain = 0
KAD1 240958Z 02012KT 02/M05 A3008 RMK A01 T00191053  RH  059%=      5-min Rain = 0
KAD1 240959Z 02011KT 02/M05 A3008 RMK A01 T00191053  RH  059%=      5-min Rain = 0
KAD1 241000Z 02011KT 02/M05 A3008 RMK A01 T00181054  RH  059%=      5-min Rain = 0
KAD1 241001Z 02012KT 02/M05 A3008 RMK A01 T00161054  RH  060%=      5-min Rain = 0
KAD1 241002Z 01011KT 02/M05 A3008 RMK A01 T00161053  RH  060%=      5-min Rain = 0
KAD1 241003Z 01012KT 02/M05 A3008 RMK A01 T00151054  RH  060%=      5-min Rain = 0
KAD1 241004Z 02014KT 02/M05 A3008 RMK A01 T00151053  RH  060%=      5-min Rain = 0
KAD1 241005Z 02012KT 02/M05 A3008 RMK A01 T00171052  RH  060%=      5-min Rain = 0
KAD1 241006Z 02013KT 02/M05 A3008 RMK A01 T00171053  RH  060%=      5-min Rain = 0
KAD1 241007Z 01013KT 02/M05 A3008 RMK A01 T00161053  RH  060%=      5-min Rain = 0
KAD1 241008Z 01013KT 02/M05 A3008 RMK A01 T00161053  RH  060%=      5-min Rain = 0
KAD1 241009Z 01013KT 02/M05 A3008 RMK A01 T00161053  RH  060%=      5-min Rain = 0
KAD1 241010Z 01012KT 02/M05 A3008 RMK A01 T00161053  RH  060%=      5-min Rain = 0
KAD1 241011Z 01013KT 02/M05 A3008 RMK A01 T00151053  RH  060%=      5-min Rain = 0
KAD1 241012Z 01012KT 02/M05 A3008 RMK A01 T00151053  RH  060%=      5-min Rain = 0
KAD1 241013Z 01013KT 02/M05 A3008 RMK A01 T00151054  RH  060%=      5-min Rain = 0
KAD1 241014Z 01014G19KT 02/M05 A3008 RMK A01 T00161053  RH  060%=      5-min Rain = 0
KAD1 241015Z 01013KT 02/M05 A3008 RMK A01 T00161053  RH  060%=      5-min Rain = 0
KAD1 241016Z 01015KT 02/M05 A3008 RMK A01 T00181053  RH  059%=      5-min Rain = 0
KAD1 241017Z 00013KT 02/M05 A3008 RMK A01 T00181054  RH  059%=      5-min Rain = 0
KAD1 241018Z 01014KT 02/M05 A3008 RMK A01 T00181054  RH  059%=      5-min Rain = 0
KAD1 241019Z 01014KT 02/M06 A3008 RMK A01 T00171055  RH  059%=      5-min Rain = 0
KAD1 241020Z 01014KT 02/M06 A3008 RMK A01 T00161055  RH  059%=      5-min Rain = 0
KAD1 241021Z 01014KT 02/M06 A3008 RMK A01 T00161055  RH  059%=      5-min Rain = 0
KAD1 241022Z 01014KT 02/M06 A3008 RMK A01 T00161055  RH  059%=      5-min Rain = 0
KAD1 241023Z 01014KT 02/M05 A3008 RMK A01 T00161054  RH  059%=      5-min Rain = 0
KAD1 241024Z 01013KT 02/M06 A3008 RMK A01 T00151055  RH  060%=      5-min Rain = 0
KAD1 241025Z 01013KT 02/M06 A3008 RMK A01 T00151055  RH  060%=      5-min Rain = 0
KAD1 241026Z 01014KT 01/M06 A3008 RMK A01 T00141055  RH  060%=      5-min Rain = 0
KAD1 241027Z 01014KT 01/M06 A3008 RMK A01 T00131055  RH  060%=      5-min Rain = 0
KAD1 241028Z 02013KT 01/M06 A3008 RMK A01 T00131055  RH  060%=      5-min Rain = 0
KAD1 241029Z 02013KT 01/M06 A3008 RMK A01 T00121055  RH  061%=      5-min Rain = 0
KAD1 241030Z 02012KT 01/M06 A3008 RMK A01 T00121056  RH  061%=      5-min Rain = 0
KAD1 241031Z 02012KT 01/M06 A3009 RMK A01 T00111056  RH  061%=      5-min Rain = 0
KAD1 241032Z 01013KT 01/M06 A3009 RMK A01 T00101056  RH  061%=      5-min Rain = 0
KAD1 241033Z 02013KT 01/M06 A3009 RMK A01 T00101056  RH  062%=      5-min Rain = 0
KAD1 241034Z 02012KT 01/M06 A3009 RMK A01 T00101055  RH  062%=      5-min Rain = 0
KAD1 241035Z 01013KT 01/M06 A3009 RMK A01 T00111055  RH  062%=      5-min Rain = 0
KAD1 241036Z 01012KT 01/M06 A3009 RMK A01 T00101056  RH  061%=      5-min Rain = 0
KAD1 241037Z 01010KT 01/M06 A3009 RMK A01 T00101056  RH  061%=      5-min Rain = 0
KAD1 241038Z 01010KT 01/M06 A3009 RMK A01 T00081057  RH  062%=      5-min Rain = 0
KAD1 241039Z 01012KT 01/M06 A3009 RMK A01 T00071057  RH  062%=      5-min Rain = 0
KAD1 241040Z 01012KT 01/M06 A3009 RMK A01 T00071056  RH  063%=      5-min Rain = 0
KAD1 241041Z 01013KT 01/M06 A3009 RMK A01 T00081056  RH  062%=      5-min Rain = 0
KAD1 241042Z 01013KT 01/M06 A301 RMK A01 T00091056  RH  062%=      5-min Rain = 0
KAD1 241043Z 01012KT 01/M06 A301 RMK A01 T00101056  RH  061%=      5-min Rain = 0
KAD1 241044Z 01013KT 01/M06 A301 RMK A01 T00091056  RH  061%=      5-min Rain = 0
KAD1 241045Z 01012KT 01/M06 A301 RMK A01 T00091057  RH  061%=      5-min Rain = 0
KAD1 241046Z 01012KT 01/M06 A301 RMK A01 T00081057  RH  062%=      5-min Rain = 0
KAD1 241047Z 01011KT 01/M06 A301 RMK A01 T00071057  RH  062%=      5-min Rain = 0
KAD1 241048Z 02013KT 01/M06 A301 RMK A01 T00071057  RH  062%=      5-min Rain = 0
KAD1 241049Z 01012KT 01/M06 A301 RMK A01 T00081057  RH  062%=      5-min Rain = 0
KAD1 241050Z 01012KT 01/M06 A301 RMK A01 T00081057  RH  062%=      5-min Rain = 0
KAD1 241051Z 01012KT 01/M06 A301 RMK A01 T00081057  RH  062%=      5-min Rain = 0
KAD1 241052Z 01012KT 01/M06 A301 RMK A01 T00081058  RH  062%=      5-min Rain = 0
KAD1 241053Z 02010KT 01/M06 A301 RMK A01 T00081057  RH  062%=      5-min Rain = 0
KAD1 241054Z 01011KT 01/M06 A301 RMK A01 T00061058  RH  062%=      5-min Rain = 0
KAD1 241055Z 01012KT 01/M06 A301 RMK A01 T00061058  RH  062%=      5-min Rain = 0
KAD1 241056Z 01012KT 01/M06 A301 RMK A01 T00051059  RH  062%=      5-min Rain = 0
KAD1 241057Z 01011KT 01/M06 A301 RMK A01 T00051059  RH  062%=      5-min Rain = 0
KAD1 241058Z 36012KT 01/M06 A301 RMK A01 T00051059  RH  062%=      5-min Rain = 0
KAD1 241059Z 36012KT 01/M06 A301 RMK A01 T00051059  RH  062%=      5-min Rain = 0
KAD1 241100Z 36012KT 01/M06 A301 RMK A01 T00061059  RH  062%=      5-min Rain = 0
KAD1 241101Z 36012KT 01/M06 A301 RMK A01 T00061059  RH  062%=      5-min Rain = 0
KAD1 241102Z 00009KT 01/M06 A3011 RMK A01 T00061060  RH  062%=      5-min Rain = 0
KAD1 241103Z 36010KT 01/M06 A3011 RMK A01 T00051060  RH  062%=      5-min Rain = 0
KAD1 241104Z 36009KT 01/M06 A3011 RMK A01 T00051060  RH  062%=      5-min Rain = 0
KAD1 241105Z 35009KT 01/M06 A3011 RMK A01 T00051060  RH  062%=      5-min Rain = 0
KAD1 241106Z 35009KT 00/M06 A3011 RMK A01 T00041060  RH  062%=      5-min Rain = 0
KAD1 241107Z 36011KT 00/M06 A3011 RMK A01 T00041060  RH  062%=      5-min Rain = 0
KAD1 241108Z 36011KT 00/M06 A3011 RMK A01 T00041060  RH  062%=      5-min Rain = 0
KAD1 241109Z 36010KT 00/M06 A3011 RMK A01 T00031060  RH  062%=      5-min Rain = 0
KAD1 241110Z 00010KT 00/M06 A3011 RMK A01 T00031061  RH  062%=      5-min Rain = 0
KAD1 241111Z 36009KT 00/M06 A3011 RMK A01 T00031061  RH  062%=      5-min Rain = 0
KAD1 241112Z 00010KT 00/M06 A3011 RMK A01 T00031061  RH  062%=      5-min Rain = 0
KAD1 241113Z 36010KT 00/M06 A3011 RMK A01 T00031060  RH  063%=      5-min Rain = 0
KAD1 241114Z 36010KT 00/M06 A3011 RMK A01 T00031061  RH  063%=      5-min Rain = 0
KAD1 241115Z 00011KT 00/M06 A3011 RMK A01 T00031061  RH  062%=      5-min Rain = 0
KAD1 241116Z 00010KT 00/M06 A3011 RMK A01 T00041061  RH  062%=      5-min Rain = 0
KAD1 241117Z 01011KT 00/M06 A3011 RMK A01 T00041061  RH  062%=      5-min Rain = 0
KAD1 241118Z 01011KT 00/M06 A3011 RMK A01 T00031062  RH  062%=      5-min Rain = 0
KAD1 241119Z 01012KT 00/M06 A3011 RMK A01 T00021062  RH  062%=      5-min Rain = 0
KAD1 241120Z 02012KT 00/M06 A3011 RMK A01 T00031062  RH  062%=      5-min Rain = 0
KAD1 241121Z 02010KT 00/M06 A3011 RMK A01 T00031062  RH  062%=      5-min Rain = 0
KAD1 241122Z 02011KT 00/M06 A3011 RMK A01 T00011063  RH  062%=      5-min Rain = 0
KAD1 241123Z 01011KT 00/M06 A3011 RMK A01 T00011063  RH  062%=      5-min Rain = 0
KAD1 241124Z 02012KT 00/M06 A3011 RMK A01 T00011063  RH  062%=      5-min Rain = 0
KAD1 241125Z 01011KT 00/06 A3011 RMK A01 T00000-63  RH  062%=      5-min Rain = 0
KAD1 241126Z 01012KT 00/M06 A3011 RMK A01 T00011063  RH  062%=      5-min Rain = 0
KAD1 241127Z 01013KT 00/M06 A3012 RMK A01 T00021063  RH  062%=      5-min Rain = 0
KAD1 241128Z 01012KT 00/M06 A3012 RMK A01 T00021062  RH  062%=      5-min Rain = 0
KAD1 241129Z 01011KT 00/M06 A3012 RMK A01 T00021063  RH  062%=      5-min Rain = 0
KAD1 241130Z 01011KT 00/M06 A3012 RMK A01 T00011063  RH  062%=      5-min Rain = 0
KAD1 241131Z 01010KT 00/06 A3012 RMK A01 T00000-63  RH  062%=      5-min Rain = 0
KAD1 241132Z 01012KT 00/06 A3012 RMK A01 T00000-63  RH  063%=      5-min Rain = 0
KAD1 241133Z 01011KT 00/06 A3012 RMK A01 T00000-63  RH  062%=      5-min Rain = 0
KAD1 241134Z 01012KT 00/M06 A3012 RMK A01 T00011063  RH  062%=      5-min Rain = 0
KAD1 241135Z 01011KT 00/M06 A3012 RMK A01 T00011063  RH  062%=      5-min Rain = 0
KAD1 241136Z 01011KT 00/M06 A3012 RMK A01 T00011064  RH  062%=      5-min Rain = 0
KAD1 241137Z 01011KT 00/M06 A3012 RMK A01 T00011064  RH  062%=      5-min Rain = 0
KAD1 241138Z 01012KT 00/07 A3012 RMK A01 T00000-65  RH  062%=      5-min Rain = 0
KAD1 241139Z 01012KT 00/M07 A3012 RMK A01 T00021065  RH  061%=      5-min Rain = 0
KAD1 241140Z 01011KT 00/M07 A3012 RMK A01 T00031065  RH  060%=      5-min Rain = 0
KAD1 241141Z 01010KT 00/M07 A3012 RMK A01 T00031065  RH  060%=      5-min Rain = 0
KAD1 241142Z 01011KT 00/M07 A3012 RMK A01 T00011066  RH  061%=      5-min Rain = 0
KAD1 241143Z 01011KT 00/M07 A3012 RMK A01 T00011066  RH  061%=      5-min Rain = 0
KAD1 241144Z 01011KT 00/07 A3012 RMK A01 T00-00-67  RH  061%=      5-min Rain = 0
KAD1 241145Z 01010KT 00/07 A3013 RMK A01 T00-00-66  RH  061%=      5-min Rain = 0
KAD1 241146Z 02010KT M00/M07 A3013 RMK A01 T10011067  RH  061%=      5-min Rain = 0
KAD1 241147Z 02011KT M00/M07 A3013 RMK A01 T10021067  RH  062%=      5-min Rain = 0
KAD1 241148Z 02010KT M00/M07 A3013 RMK A01 T10031067  RH  062%=      5-min Rain = 0
KAD1 241149Z 02010KT M00/M07 A3013 RMK A01 T10021067  RH  062%=      5-min Rain = 0
KAD1 241150Z 02010KT M00/M07 A3013 RMK A01 T10021067  RH  062%=      5-min Rain = 0
KAD1 241151Z 02010KT M00/M07 A3013 RMK A01 T10021067  RH  062%=      5-min Rain = 0
KAD1 241152Z 02010KT M00/M07 A3013 RMK A01 T10031067  RH  062%=      5-min Rain = 0
KAD1 241153Z 02010KT M00/M07 A3013 RMK A01 T10031068  RH  062%=      5-min Rain = 0
KAD1 241154Z 02010KT M00/M07 A3013 RMK A01 T10031068  RH  062%=      5-min Rain = 0
KAD1 241155Z 02009KT M00/M07 A3013 RMK A01 T10031068  RH  062%=      5-min Rain = 0
KAD1 241156Z 02009KT M00/M07 A3013 RMK A01 T10041068  RH  062%=      5-min Rain = 0
KAD1 241157Z 02009KT M01/M07 A3013 RMK A01 T10051068  RH  062%=      5-min Rain = 0
KAD1 241158Z 01010KT M01/M07 A3013 RMK A01 T10051068  RH  062%=      5-min Rain = 0
KAD1 241159Z 01009KT M01/M07 A3013 RMK A01 T10051067  RH  063%=      5-min Rain = 0
KAD1 241200Z 01009KT M01/M07 A3013 RMK A01 T10061068  RH  063%=      5-min Rain = 0
KAD1 241201Z 01010KT M01/M07 A3013 RMK A01 T10061068  RH  063%=      5-min Rain = 0
KAD1 241202Z 01009KT M01/M07 A3013 RMK A01 T10071068  RH  063%=      5-min Rain = 0
KAD1 241203Z 02009KT M01/M07 A3013 RMK A01 T10071068  RH  063%=      5-min Rain = 0
KAD1 241204Z 01009KT M01/M07 A3013 RMK A01 T10071068  RH  064%=      5-min Rain = 0
KAD1 241205Z 01010KT M01/M07 A3013 RMK A01 T10071068  RH  064%=      5-min Rain = 0
KAD1 241206Z 01010KT M01/M07 A3013 RMK A01 T10071068  RH  063%=      5-min Rain = 0
KAD1 241207Z 02011KT M01/M07 A3013 RMK A01 T10081068  RH  064%=      5-min Rain = 0
KAD1 241208Z 02013KT M01/M07 A3013 RMK A01 T10081068  RH  064%=      5-min Rain = 0
KAD1 241209Z 02015KT M01/M07 A3013 RMK A01 T10061067  RH  063%=      5-min Rain = 0
KAD1 241210Z 01013KT M00/M07 A3013 RMK A01 T10041067  RH  062%=      5-min Rain = 0
KAD1 241211Z 01012KT M00/M07 A3013 RMK A01 T10031068  RH  061%=      5-min Rain = 0
KAD1 241212Z 01011KT M00/M07 A3013 RMK A01 T10021068  RH  061%=      5-min Rain = 0
KAD1 241213Z 01011KT M00/M07 A3013 RMK A01 T10021069  RH  061%=      5-min Rain = 0
KAD1 241214Z 01010KT M00/M07 A3013 RMK A01 T10031069  RH  061%=      5-min Rain = 0
KAD1 241215Z 00009KT M00/M07 A3013 RMK A01 T10041069  RH  062%=      5-min Rain = 0
KAD1 241216Z 01010KT M01/M07 A3013 RMK A01 T10051069  RH  062%=      5-min Rain = 0
KAD1 241217Z 01010KT M01/M07 A3013 RMK A01 T10061069  RH  062%=      5-min Rain = 0
KAD1 241218Z 01012KT M01/M07 A3013 RMK A01 T10061068  RH  063%=      5-min Rain = 0
KAD1 241219Z 01012KT M01/M07 A3013 RMK A01 T10061068  RH  063%=      5-min Rain = 0
KAD1 241220Z 01012KT M01/M07 A3013 RMK A01 T10051068  RH  062%=      5-min Rain = 0
KAD1 241221Z 01010KT M01/M07 A3013 RMK A01 T10061069  RH  062%=      5-min Rain = 0
KAD1 241222Z 01009KT M01/M07 A3013 RMK A01 T10061069  RH  063%=      5-min Rain = 0
KAD1 241223Z 00010KT M01/M07 A3013 RMK A01 T10071069  RH  063%=      5-min Rain = 0
KAD1 241224Z 01011KT M01/M07 A3013 RMK A01 T10071069  RH  063%=      5-min Rain = 0
KAD1 241225Z 01011KT M01/M07 A3013 RMK A01 T10071069  RH  063%=      5-min Rain = 0
KAD1 241226Z 01011KT M01/M07 A3014 RMK A01 T10061069  RH  063%=      5-min Rain = 0
KAD1 241227Z 01010KT M01/M07 A3014 RMK A01 T10061069  RH  062%=      5-min Rain = 0
KAD1 241228Z 01011KT M01/M07 A3014 RMK A01 T10061069  RH  062%=      5-min Rain = 0
KAD1 241229Z 01011KT M01/M07 A3014 RMK A01 T10061070  RH  062%=      5-min Rain = 0
KAD1 241230Z 01010KT M01/M07 A3014 RMK A01 T10061070  RH  062%=      5-min Rain = 0
KAD1 241231Z 01010KT M01/M07 A3014 RMK A01 T10061070  RH  062%=      5-min Rain = 0
KAD1 241232Z 01010KT M01/M07 A3014 RMK A01 T10061070  RH  062%=      5-min Rain = 0
KAD1 241233Z 01011KT M01/M07 A3014 RMK A01 T10071070  RH  062%=      5-min Rain = 0
KAD1 241234Z 01012KT M01/M07 A3014 RMK A01 T10071071  RH  062%=      5-min Rain = 0
KAD1 241235Z 01012KT M01/M07 A3014 RMK A01 T10061071  RH  062%=      5-min Rain = 0
KAD1 241236Z 01012KT M01/M07 A3014 RMK A01 T10061071  RH  061%=      5-min Rain = 0
KAD1 241237Z 01012KT M01/M07 A3014 RMK A01 T10061071  RH  061%=      5-min Rain = 0
KAD1 241238Z 01012KT M01/M07 A3014 RMK A01 T10051071  RH  061%=      5-min Rain = 0
KAD1 241239Z 02011KT M01/M07 A3014 RMK A01 T10061071  RH  061%=      5-min Rain = 0
KAD1 241240Z 01010KT M01/M07 A3014 RMK A01 T10061072  RH  061%=      5-min Rain = 0
KAD1 241241Z 01011KT M01/M07 A3015 RMK A01 T10061072  RH  061%=      5-min Rain = 0
KAD1 241242Z 02010KT M01/M07 A3015 RMK A01 T10071072  RH  061%=      5-min Rain = 0
KAD1 241243Z 01011KT M01/M07 A3015 RMK A01 T10071072  RH  061%=      5-min Rain = 0
KAD1 241244Z 02012KT M01/M07 A3015 RMK A01 T10071072  RH  061%=      5-min Rain = 0
KAD1 241245Z 02010KT M01/M07 A3015 RMK A01 T10051072  RH  061%=      5-min Rain = 0
KAD1 241246Z 02011KT M01/M07 A3015 RMK A01 T10051072  RH  061%=      5-min Rain = 0
KAD1 241247Z 01012KT M01/M07 A3015 RMK A01 T10061073  RH  061%=      5-min Rain = 0
KAD1 241248Z 01011KT M01/M07 A3015 RMK A01 T10061073  RH  061%=      5-min Rain = 0
KAD1 241249Z 01011KT M01/M07 A3016 RMK A01 T10061073  RH  060%=      5-min Rain = 0
KAD1 241250Z 01011KT M01/M07 A3016 RMK A01 T10061074  RH  060%=      5-min Rain = 0
KAD1 241251Z 02011KT M01/M07 A3016 RMK A01 T10051073  RH  060%=      5-min Rain = 0
KAD1 241252Z 02011KT M01/M07 A3016 RMK A01 T10061074  RH  060%=      5-min Rain = 0
KAD1 241253Z 01011KT M01/M07 A3016 RMK A01 T10061074  RH  060%=      5-min Rain = 0
KAD1 241254Z 01010KT M01/M07 A3016 RMK A01 T10061074  RH  060%=      5-min Rain = 0
KAD1 241255Z 01010KT M01/M07 A3016 RMK A01 T10061074  RH  060%=      5-min Rain = 0
KAD1 241256Z 01010KT M01/M07 A3016 RMK A01 T10071074  RH  060%=      5-min Rain = 0
KAD1 241257Z 01011KT M01/M07 A3016 RMK A01 T10081074  RH  061%=      5-min Rain = 0
KAD1 241258Z 01011KT M01/M07 A3016 RMK A01 T10071074  RH  061%=      5-min Rain = 0
KAD1 241259Z 01011KT M01/M07 A3016 RMK A01 T10071074  RH  060%=      5-min Rain = 0
KAD1 241300Z 01011KT M01/M07 A3016 RMK A01 T10061074  RH  060%=      5-min Rain = 0
KAD1 241301Z 01010KT M01/M07 A3016 RMK A01 T10061074  RH  060%=      5-min Rain = 0
KAD1 241302Z 01010KT M01/M07 A3016 RMK A01 T10061074  RH  060%=      5-min Rain = 0
KAD1 241303Z 01011KT M01/M07 A3016 RMK A01 T10071074  RH  061%=      5-min Rain = 0
KAD1 241304Z 01011KT M01/M07 A3016 RMK A01 T10081074  RH  061%=      5-min Rain = 0
KAD1 241305Z 01011KT M01/M07 A3016 RMK A01 T10091074  RH  061%=      5-min Rain = 0
KAD1 241306Z 01012KT M01/M07 A3016 RMK A01 T10091074  RH  062%=      5-min Rain = 0
KAD1 241307Z 01012KT M01/M07 A3016 RMK A01 T10081073  RH  062%=      5-min Rain = 0
KAD1 241308Z 01013KT M01/M07 A3016 RMK A01 T10071072  RH  061%=      5-min Rain = 0
KAD1 241309Z 01011KT M01/M07 A3016 RMK A01 T10061072  RH  061%=      5-min Rain = 0
KAD1 241310Z 01011KT M01/M07 A3016 RMK A01 T10071073  RH  061%=      5-min Rain = 0
KAD1 241311Z 01009KT M01/M07 A3016 RMK A01 T10081073  RH  061%=      5-min Rain = 0
KAD1 241312Z 01009KT M01/M07 A3017 RMK A01 T10081073  RH  062%=      5-min Rain = 0
KAD1 241313Z 01010KT M01/M07 A3017 RMK A01 T10091073  RH  062%=      5-min Rain = 0
KAD1 241314Z 01011KT M01/M07 A3017 RMK A01 T10101073  RH  062%=      5-min Rain = 0
KAD1 241315Z 01010KT M01/M07 A3017 RMK A01 T10101072  RH  062%=      5-min Rain = 0
KAD1 241316Z 01009KT M01/M07 A3017 RMK A01 T10101072  RH  062%=      5-min Rain = 0
KAD1 241317Z 01009KT M01/M07 A3017 RMK A01 T10111073  RH  063%=      5-min Rain = 0
KAD1 241318Z 01009KT M01/M07 A3017 RMK A01 T10111072  RH  063%=      5-min Rain = 0
KAD1 241319Z 01010KT M01/M07 A3017 RMK A01 T10111072  RH  063%=      5-min Rain = 0
KAD1 241320Z 01009KT M01/M07 A3017 RMK A01 T10111073  RH  063%=      5-min Rain = 0
KAD1 241321Z 01010KT M01/M07 A3017 RMK A01 T10111072  RH  063%=      5-min Rain = 0
KAD1 241322Z 01011KT M01/M07 A3017 RMK A01 T10111073  RH  063%=      5-min Rain = 0
KAD1 241323Z 01011KT M01/M07 A3017 RMK A01 T10111072  RH  063%=      5-min Rain = 0
KAD1 241324Z 01009KT M01/M07 A3017 RMK A01 T10111072  RH  063%=      5-min Rain = 0
KAD1 241325Z 01009KT M01/M07 A3017 RMK A01 T10121073  RH  063%=      5-min Rain = 0
KAD1 241326Z 02011KT M01/M07 A3017 RMK A01 T10121073  RH  063%=      5-min Rain = 0
KAD1 241327Z 01010KT M01/M07 A3017 RMK A01 T10121072  RH  063%=      5-min Rain = 0
KAD1 241328Z 01010KT M01/M07 A3017 RMK A01 T10111073  RH  063%=      5-min Rain = 0
KAD1 241329Z 01010KT M01/M07 A3017 RMK A01 T10111073  RH  063%=      5-min Rain = 0
KAD1 241330Z 01010KT M01/M07 A3017 RMK A01 T10111073  RH  063%=      5-min Rain = 0
KAD1 241331Z 01010KT M01/M07 A3017 RMK A01 T10111073  RH  063%=      5-min Rain = 0
KAD1 241332Z 01010KT M01/M07 A3017 RMK A01 T10121074  RH  063%=      5-min Rain = 0
KAD1 241333Z 01010KT M01/M07 A3017 RMK A01 T10121073  RH  063%=      5-min Rain = 0
KAD1 241334Z 01009KT M01/M07 A3018 RMK A01 T10111073  RH  063%=      5-min Rain = 0
KAD1 241335Z 01010KT M01/M07 A3018 RMK A01 T10121073  RH  063%=      5-min Rain = 0
KAD1 241336Z 01010KT M01/M07 A3018 RMK A01 T10121073  RH  063%=      5-min Rain = 0
KAD1 241337Z 01009KT M01/M07 A3018 RMK A01 T10111072  RH  063%=      5-min Rain = 0
KAD1 241338Z 01009KT M01/M07 A3018 RMK A01 T10101072  RH  063%=      5-min Rain = 0
KAD1 241339Z 01010KT M01/M07 A3018 RMK A01 T10111073  RH  063%=      5-min Rain = 0
KAD1 241340Z 01010KT M01/M07 A3018 RMK A01 T10111073  RH  063%=      5-min Rain = 0
KAD1 241341Z 01011KT M01/M07 A3018 RMK A01 T10091072  RH  062%=      5-min Rain = 0
KAD1 241342Z 01012KT M01/M07 A3018 RMK A01 T10091073  RH  062%=      5-min Rain = 0
KAD1 241343Z 01012KT M01/M07 A3018 RMK A01 T10081073  RH  061%=      5-min Rain = 0
KAD1 241344Z 01011KT M01/M07 A3018 RMK A01 T10071073  RH  061%=      5-min Rain = 0
KAD1 241345Z 01011KT M01/M07 A3018 RMK A01 T10071073  RH  061%=      5-min Rain = 0
KAD1 241346Z 01010KT M01/M07 A3018 RMK A01 T10071073  RH  061%=      5-min Rain = 0
KAD1 241347Z 01010KT M01/M07 A3018 RMK A01 T10081074  RH  061%=      5-min Rain = 0
KAD1 241348Z 01010KT M01/M07 A3018 RMK A01 T10091074  RH  061%=      5-min Rain = 0
KAD1 241349Z 01010KT M01/M07 A3018 RMK A01 T10081073  RH  061%=      5-min Rain = 0
KAD1 241350Z 02010KT M01/M07 A3018 RMK A01 T10091074  RH  061%=      5-min Rain = 0
KAD1 241351Z 01009KT M01/M07 A3018 RMK A01 T10091073  RH  062%=      5-min Rain = 0
KAD1 241352Z 01009KT M01/M07 A3018 RMK A01 T10101073  RH  062%=      5-min Rain = 0
KAD1 241353Z 01010KT M01/M07 A3018 RMK A01 T10091073  RH  062%=      5-min Rain = 0
KAD1 241354Z 01009KT M01/M07 A3019 RMK A01 T10081073  RH  062%=      5-min Rain = 0
KAD1 241355Z 01009KT M01/M07 A3019 RMK A01 T10081073  RH  061%=      5-min Rain = 0
KAD1 241356Z 01011KT M01/M07 A3019 RMK A01 T10081074  RH  061%=      5-min Rain = 0
KAD1 241357Z 01010KT M01/M07 A3019 RMK A01 T10071074  RH  061%=      5-min Rain = 0
KAD1 241358Z 01009KT M01/M07 A3019 RMK A01 T10071074  RH  060%=      5-min Rain = 0
KAD1 241359Z 00010KT M01/M07 A3019 RMK A01 T10071074  RH  060%=      5-min Rain = 0
KAD1 241400Z 01010KT M01/M07 A3019 RMK A01 T10061074  RH  060%=      5-min Rain = 0
KAD1 241401Z 01009KT M01/M07 A3019 RMK A01 T10061074  RH  060%=      5-min Rain = 0
KAD1 241402Z 01009KT M01/M07 A3019 RMK A01 T10061074  RH  060%=      5-min Rain = 0
KAD1 241403Z 01009KT M01/M07 A3019 RMK A01 T10061073  RH  060%=      5-min Rain = 0
KAD1 241404Z 00009KT M01/M07 A3019 RMK A01 T10061074  RH  060%=      5-min Rain = 0
KAD1 241405Z 00009KT M01/M07 A3019 RMK A01 T10061073  RH  060%=      5-min Rain = 0
KAD1 241406Z 01010KT M01/M07 A302 RMK A01 T10061073  RH  061%=      5-min Rain = 0
KAD1 241407Z 01012KT M01/M07 A302 RMK A01 T10061074  RH  060%=      5-min Rain = 0
KAD1 241408Z 01012KT M01/M07 A302 RMK A01 T10051074  RH  060%=      5-min Rain = 0
KAD1 241409Z 01010KT M01/M07 A302 RMK A01 T10051074  RH  059%=      5-min Rain = 0
KAD1 241410Z 01012KT M00/M07 A302 RMK A01 T10041074  RH  059%=      5-min Rain = 0
KAD1 241411Z 01010KT M00/M08 A3019 RMK A01 T10041075  RH  059%=      5-min Rain = 0
KAD1 241412Z 01010KT M01/M07 A3019 RMK A01 T10051074  RH  059%=      5-min Rain = 0
KAD1 241413Z 01011KT M00/M07 A302 RMK A01 T10041074  RH  059%=      5-min Rain = 0
KAD1 241414Z 01011KT M00/M08 A302 RMK A01 T10041075  RH  059%=      5-min Rain = 0
KAD1 241415Z 01010KT M00/M08 A302 RMK A01 T10041075  RH  059%=      5-min Rain = 0
KAD1 241416Z 01011KT M00/M08 A302 RMK A01 T10041075  RH  059%=      5-min Rain = 0
KAD1 241417Z 01011KT M00/M07 A302 RMK A01 T10031074  RH  059%=      5-min Rain = 0
KAD1 241418Z 02010KT M00/M08 A302 RMK A01 T10031075  RH  058%=      5-min Rain = 0
KAD1 241419Z 02010KT M00/M08 A302 RMK A01 T10031076  RH  058%=      5-min Rain = 0
KAD1 241420Z 01010KT M00/M08 A302 RMK A01 T10021075  RH  058%=      5-min Rain = 0
KAD1 241421Z 02010KT M00/M08 A302 RMK A01 T10021075  RH  058%=      5-min Rain = 0
KAD1 241422Z 01009KT M00/M08 A302 RMK A01 T10021075  RH  058%=      5-min Rain = 0
KAD1 241423Z 01010KT M00/M08 A302 RMK A01 T10021075  RH  058%=      5-min Rain = 0
KAD1 241424Z 02010KT M00/M08 A302 RMK A01 T10021075  RH  058%=      5-min Rain = 0
KAD1 241425Z 02009KT M00/M08 A302 RMK A01 T10011076  RH  057%=      5-min Rain = 0
KAD1 241426Z 02010KT 00/07 A302 RMK A01 T00-00-74  RH  057%=      5-min Rain = 0
KAD1 241427Z 02010KT 00/M08 A302 RMK A01 T00011075  RH  057%=      5-min Rain = 0
KAD1 241428Z 02011KT 00/M08 A302 RMK A01 T00021076  RH  056%=      5-min Rain = 0
KAD1 241429Z 02011KT 00/M08 A302 RMK A01 T00021077  RH  055%=      5-min Rain = 0
KAD1 241430Z 02011KT 00/M08 A302 RMK A01 T00021078  RH  055%=      5-min Rain = 0
KAD1 241431Z 02011KT 00/M08 A3021 RMK A01 T00031077  RH  055%=      5-min Rain = 0
KAD1 241432Z 02011KT 00/M08 A3021 RMK A01 T00031076  RH  055%=      5-min Rain = 0
KAD1 241433Z 02010KT 00/M08 A3021 RMK A01 T00031078  RH  054%=      5-min Rain = 0
KAD1 241434Z 02010KT 00/M08 A3021 RMK A01 T00041077  RH  054%=      5-min Rain = 0
KAD1 241435Z 01009KT 01/M08 A3021 RMK A01 T00051077  RH  054%=      5-min Rain = 0
KAD1 241436Z 01012KT 01/M08 A3021 RMK A01 T00051076  RH  054%=      5-min Rain = 0
KAD1 241437Z 01012KT 01/M08 A3021 RMK A01 T00061077  RH  054%=      5-min Rain = 0
KAD1 241438Z 01009KT 01/M08 A3021 RMK A01 T00061078  RH  054%=      5-min Rain = 0
KAD1 241439Z 01010KT 01/M08 A3021 RMK A01 T00061077  RH  054%=      5-min Rain = 0
KAD1 241440Z 01011KT 01/M08 A3022 RMK A01 T00071076  RH  054%=      5-min Rain = 0
KAD1 241441Z 00012KT 01/M08 A3022 RMK A01 T00081078  RH  053%=      5-min Rain = 0
KAD1 241442Z 01011KT 01/M08 A3022 RMK A01 T00081078  RH  053%=      5-min Rain = 0
KAD1 241443Z 01012KT 01/M08 A3022 RMK A01 T00081078  RH  053%=      5-min Rain = 0
KAD1 241444Z 01010KT 01/M08 A3022 RMK A01 T00081077  RH  053%=      5-min Rain = 0
KAD1 241445Z 01010KT 01/M08 A3022 RMK A01 T00081078  RH  053%=      5-min Rain = 0
KAD1 241446Z 01011KT 01/M08 A3022 RMK A01 T00091077  RH  053%=      5-min Rain = 0
KAD1 241447Z 01012KT 01/M08 A3022 RMK A01 T00091077  RH  053%=      5-min Rain = 0
KAD1 241448Z 02012KT 01/M08 A3022 RMK A01 T00101078  RH  052%=      5-min Rain = 0
KAD1 241449Z 02012KT 01/M08 A3022 RMK A01 T00091079  RH  052%=      5-min Rain = 0
KAD1 241450Z 02011KT 01/M08 A3022 RMK A01 T00101079  RH  052%=      5-min Rain = 0
KAD1 241451Z 02010KT 01/M08 A3022 RMK A01 T00101077  RH  052%=      5-min Rain = 0
KAD1 241452Z 02012KT 01/M08 A3022 RMK A01 T00111077  RH  052%=      5-min Rain = 0
KAD1 241453Z 01012KT 01/M08 A3022 RMK A01 T00111078  RH  052%=      5-min Rain = 0
KAD1 241454Z 02012KT 01/M08 A3022 RMK A01 T00111078  RH  052%=      5-min Rain = 0
KAD1 241455Z 02012KT 01/M08 A3022 RMK A01 T00101078  RH  052%=      5-min Rain = 0
KAD1 241456Z 02013KT 01/M08 A3022 RMK A01 T00101078  RH  052%=      5-min Rain = 0
KAD1 241457Z 02013KT 01/M08 A3022 RMK A01 T00101078  RH  052%=      5-min Rain = 0
KAD1 241458Z 03011KT 01/M08 A3023 RMK A01 T00101077  RH  052%=      5-min Rain = 0
KAD1 241459Z 03013KT 01/M08 A3023 RMK A01 T00111077  RH  052%=      5-min Rain = 0
KAD1 241500Z 02012KT 01/M08 A3023 RMK A01 T00111078  RH  051%=      5-min Rain = 0
KAD1 241501Z 01010KT 01/M08 A3023 RMK A01 T00111078  RH  051%=      5-min Rain = 0
KAD1 241502Z 02011KT 01/M08 A3023 RMK A01 T00111077  RH  052%=      5-min Rain = 0
KAD1 241503Z 02012KT 01/M08 A3023 RMK A01 T00121076  RH  052%=      5-min Rain = 0
KAD1 241504Z 01012KT 01/M08 A3023 RMK A01 T00131078  RH  051%=      5-min Rain = 0
KAD1 241505Z 01014KT 01/M08 A3023 RMK A01 T00121078  RH  051%=      5-min Rain = 0
KAD1 241506Z 02014KT 01/M08 A3023 RMK A01 T00121078  RH  051%=      5-min Rain = 0
KAD1 241507Z 02012KT 01/M08 A3023 RMK A01 T00121078  RH  051%=      5-min Rain = 0
KAD1 241508Z 02012KT 01/M08 A3023 RMK A01 T00121079  RH  051%=      5-min Rain = 0
KAD1 241509Z 02011KT 01/M08 A3023 RMK A01 T00121079  RH  051%=      5-min Rain = 0
KAD1 241510Z 02012KT 01/M08 A3023 RMK A01 T00111079  RH  051%=      5-min Rain = 0
KAD1 241511Z 02013KT 01/M08 A3023 RMK A01 T00121077  RH  051%=      5-min Rain = 0
KAD1 241512Z 01012KT 01/M08 A3023 RMK A01 T00131077  RH  051%=      5-min Rain = 0
KAD1 241513Z 01013KT 01/M08 A3023 RMK A01 T00131078  RH  051%=      5-min Rain = 0
KAD1 241514Z 01012KT 01/M08 A3023 RMK A01 T00131079  RH  051%=      5-min Rain = 0
KAD1 241515Z 02011KT 01/M08 A3023 RMK A01 T00131076  RH  051%=      5-min Rain = 0
KAD1 241516Z 03012KT 02/M08 A3023 RMK A01 T00151076  RH  051%=      5-min Rain = 0
KAD1 241517Z 02011KT 02/M08 A3023 RMK A01 T00151076  RH  051%=      5-min Rain = 0
KAD1 241518Z 01012KT 02/M07 A3023 RMK A01 T00171074  RH  051%=      5-min Rain = 0
KAD1 241519Z 02014KT 02/M08 A3023 RMK A01 T00171076  RH  050%=      5-min Rain = 0
KAD1 241520Z 02013KT 02/M08 A3023 RMK A01 T00161077  RH  050%=      5-min Rain = 0
KAD1 241521Z 02011KT 02/M08 A3023 RMK A01 T00161077  RH  050%=      5-min Rain = 0
KAD1 241522Z 02012KT 02/M08 A3023 RMK A01 T00161075  RH  051%=      5-min Rain = 0
KAD1 241523Z 02013KT 02/M08 A3023 RMK A01 T00191075  RH  050%=      5-min Rain = 0
KAD1 241524Z 03013KT 02/M08 A3023 RMK A01 T00191076  RH  049%=      5-min Rain = 0
KAD1 241525Z 03014KT 02/M08 A3023 RMK A01 T00191077  RH  049%=      5-min Rain = 0
KAD1 241526Z 03013KT 02/M08 A3023 RMK A01 T00181079  RH  049%=      5-min Rain = 0
KAD1 241527Z 03016KT 02/M08 A3023 RMK A01 T00171078  RH  049%=      5-min Rain = 0
KAD1 241528Z 02011KT 02/M08 A3023 RMK A01 T00171079  RH  049%=      5-min Rain = 0
KAD1 241529Z 02011KT 02/M08 A3023 RMK A01 T00181077  RH  049%=      5-min Rain = 0
KAD1 241530Z 03011KT 02/M08 A3023 RMK A01 T00191077  RH  049%=      5-min Rain = 0
KAD1 241531Z 02011KT 02/M08 A3023 RMK A01 T00191077  RH  049%=      5-min Rain = 0
KAD1 241532Z 03011KT 02/M08 A3023 RMK A01 T00191076  RH  049%=      5-min Rain = 0
KAD1 241533Z 03014KT 02/M08 A3023 RMK A01 T00211075  RH  049%=      5-min Rain = 0
KAD1 241534Z 03013KT 02/M08 A3023 RMK A01 T00201077  RH  048%=      5-min Rain = 0
KAD1 241535Z 03014KT 02/M08 A3023 RMK A01 T00191077  RH  049%=      5-min Rain = 0
KAD1 241536Z 03013KT 02/M07 A3023 RMK A01 T00221074  RH  049%=      5-min Rain = 0
KAD1 241537Z 02015KT 02/M08 A3023 RMK A01 T00231075  RH  048%=      5-min Rain = 0
KAD1 241538Z 02014KT 02/M08 A3023 RMK A01 T00221076  RH  048%=      5-min Rain = 0
KAD1 241539Z 03013KT 02/M08 A3023 RMK A01 T00231075  RH  048%=      5-min Rain = 0
KAD1 241540Z 03015KT 02/M08 A3023 RMK A01 T00241076  RH  048%=      5-min Rain = 0
KAD1 241541Z 04013KT 02/M08 A3023 RMK A01 T00231077  RH  047%=      5-min Rain = 0
KAD1 241542Z 04013KT 02/M08 A3023 RMK A01 T00231077  RH  048%=      5-min Rain = 0
KAD1 241543Z 03012KT 02/M08 A3023 RMK A01 T00241075  RH  048%=      5-min Rain = 0
KAD1 241544Z 03013KT 03/M08 A3023 RMK A01 T00251076  RH  047%=      5-min Rain = 0
KAD1 241545Z 02013KT 03/M08 A3023 RMK A01 T00261075  RH  047%=      5-min Rain = 0
KAD1 241546Z 02013KT 03/M08 A3023 RMK A01 T00251077  RH  047%=      5-min Rain = 0
KAD1 241547Z 02014KT 03/M08 A3023 RMK A01 T00251076  RH  047%=      5-min Rain = 0
KAD1 241548Z 02015KT 03/M08 A3022 RMK A01 T00251077  RH  047%=      5-min Rain = 0
KAD1 241549Z 03014KT 02/M08 A3022 RMK A01 T00241077  RH  047%=      5-min Rain = 0
KAD1 241550Z 03014KT 03/M08 A3022 RMK A01 T00251077  RH  047%=      5-min Rain = 0
KAD1 241551Z 03013KT 03/M08 A3022 RMK A01 T00251077  RH  047%=      5-min Rain = 0
KAD1 241552Z 02013KT 02/M08 A3022 RMK A01 T00241078  RH  047%=      5-min Rain = 0
KAD1 241553Z 03013KT 02/M08 A3022 RMK A01 T00241076  RH  047%=      5-min Rain = 0
KAD1 241554Z 03013KT 03/M08 A3022 RMK A01 T00261075  RH  047%=      5-min Rain = 0
KAD1 241555Z 03012KT 03/M08 A3022 RMK A01 T00291075  RH  046%=      5-min Rain = 0
KAD1 241556Z 04012KT 03/M08 A3022 RMK A01 T00261079  RH  046%=      5-min Rain = 0
KAD1 241557Z 03013KT 03/M08 A3022 RMK A01 T00261077  RH  047%=      5-min Rain = 0
KAD1 241558Z 02014KT 03/M08 A3022 RMK A01 T00271077  RH  046%=      5-min Rain = 0
KAD1 241559Z 03016KT 03/M08 A3022 RMK A01 T00271078  RH  046%=      5-min Rain = 0
KAD1 241600Z 05015KT 03/M08 A3022 RMK A01 T00271080  RH  045%=      5-min Rain = 0
KAD1 241601Z 05013KT 03/M08 A3022 RMK A01 T00281080  RH  045%=      5-min Rain = 0
KAD1 241602Z 05013KT 03/M08 A3022 RMK A01 T00301075  RH  046%=      5-min Rain = 0
KAD1 241603Z 04012KT 03/M07 A3022 RMK A01 T00311074  RH  046%=      5-min Rain = 0
KAD1 241604Z 04013KT 03/M07 A3022 RMK A01 T00331073  RH  046%=      5-min Rain = 0
KAD1 241605Z 03012KT 03/M07 A3022 RMK A01 T00331073  RH  046%=      5-min Rain = 0
KAD1 241606Z 02014KT 03/M07 A3022 RMK A01 T00331073  RH  046%=      5-min Rain = 0
KAD1 241607Z 02013KT 03/M08 A3022 RMK A01 T00321077  RH  045%=      5-min Rain = 0
KAD1 241608Z 02013KT 03/M08 A3022 RMK A01 T00311078  RH  045%=      5-min Rain = 0
KAD1 241609Z 03014KT 03/M08 A3022 RMK A01 T00311077  RH  045%=      5-min Rain = 0
KAD1 241610Z 03015KT 03/M08 A3022 RMK A01 T00311079  RH  044%=      5-min Rain = 0
KAD1 241611Z 05013KT 03/M08 A3022 RMK A01 T00311078  RH  045%=      5-min Rain = 0
KAD1 241612Z 04011KT 03/M08 A3022 RMK A01 T00311078  RH  045%=      5-min Rain = 0
KAD1 241613Z 04008KT 03/M08 A3023 RMK A01 T00301078  RH  045%=      5-min Rain = 0
KAD1 241614Z 03010KT 03/M08 A3023 RMK A01 T00301076  RH  046%=      5-min Rain = 0
KAD1 241615Z 04012KT 03/M07 A3023 RMK A01 T00331073  RH  046%=      5-min Rain = 0
KAD1 241616Z 05012KT 04/M07 A3023 RMK A01 T00381070  RH  045%=      5-min Rain = 0
KAD1 241617Z 04012KT 04/M08 A3023 RMK A01 T00391075  RH  043%=      5-min Rain = 0
KAD1 241618Z 03012KT 04/M08 A3023 RMK A01 T00361079  RH  043%=      5-min Rain = 0
KAD1 241619Z 04011KT 04/M08 A3023 RMK A01 T00361078  RH  043%=      5-min Rain = 0
KAD1 241620Z 05012KT 04/M08 A3023 RMK A01 T00371078  RH  043%=      5-min Rain = 0
KAD1 241621Z 05012KT 04/M08 A3023 RMK A01 T00361078  RH  043%=      5-min Rain = 0
KAD1 241622Z 05012KT 04/M08 A3023 RMK A01 T00351078  RH  043%=      5-min Rain = 0
KAD1 241623Z 04012KT 03/M08 A3023 RMK A01 T00341079  RH  043%=      5-min Rain = 0
KAD1 241624Z 03012KT 03/M08 A3023 RMK A01 T00341080  RH  043%=      5-min Rain = 0
KAD1 241625Z 04013KT 04/M08 A3023 RMK A01 T00351080  RH  043%=      5-min Rain = 0
KAD1 241626Z 05012KT 04/M08 A3023 RMK A01 T00371081  RH  042%=      5-min Rain = 0
KAD1 241627Z 05013KT 04/M08 A3023 RMK A01 T00371083  RH  041%=      5-min Rain = 0
KAD1 241628Z 04011KT 04/M08 A3023 RMK A01 T00361081  RH  042%=      5-min Rain = 0
KAD1 241629Z 05010KT 04/M08 A3023 RMK A01 T00371080  RH  042%=      5-min Rain = 0
KAD1 241630Z 06011KT 04/M08 A3023 RMK A01 T00371081  RH  042%=      5-min Rain = 0
KAD1 241631Z 06012KT 04/M08 A3023 RMK A01 T00371080  RH  042%=      5-min Rain = 0
KAD1 241632Z 06012KT 04/M08 A3023 RMK A01 T00401078  RH  042%=      5-min Rain = 0
KAD1 241633Z 05012KT 04/M08 A3023 RMK A01 T00391081  RH  041%=      5-min Rain = 0
KAD1 241634Z 05011KT 04/M08 A3023 RMK A01 T00381081  RH  042%=      5-min Rain = 0
KAD1 241635Z 03010KT 04/M08 A3023 RMK A01 T00391079  RH  042%=      5-min Rain = 0
KAD1 241636Z 04009KT 04/M08 A3023 RMK A01 T00401079  RH  042%=      5-min Rain = 0
KAD1 241637Z 03010KT 04/M08 A3023 RMK A01 T00401079  RH  042%=      5-min Rain = 0
KAD1 241638Z 03013KT 04/M08 A3023 RMK A01 T00411079  RH  041%=      5-min Rain = 0
KAD1 241639Z 03010KT 04/M08 A3023 RMK A01 T00401083  RH  040%=      5-min Rain = 0
KAD1 241640Z 03010KT 04/M08 A3023 RMK A01 T00401081  RH  041%=      5-min Rain = 0
KAD1 241641Z 05010KT 04/M08 A3023 RMK A01 T00421078  RH  041%=      5-min Rain = 0
KAD1 241642Z 03011KT 05/M08 A3023 RMK A01 T00451077  RH  041%=      5-min Rain = 0
KAD1 241643Z 03011KT 05/M08 A3023 RMK A01 T00461080  RH  039%=      5-min Rain = 0
KAD1 241644Z 02012KT 05/M08 A3023 RMK A01 T00451083  RH  039%=      5-min Rain = 0
KAD1 241645Z 02012KT 04/M08 A3023 RMK A01 T00441081  RH  040%=      5-min Rain = 0
KAD1 241646Z 02011KT 04/M08 A3023 RMK A01 T00441082  RH  039%=      5-min Rain = 0
KAD1 241647Z 04010KT 04/M08 A3023 RMK A01 T00431082  RH  040%=      5-min Rain = 0
KAD1 241648Z 05011KT 05/M08 A3023 RMK A01 T00451079  RH  040%=      5-min Rain = 0
KAD1 241649Z 06010KT 05/M08 A3023 RMK A01 T00451082  RH  039%=      5-min Rain = 0
KAD1 241650Z 06010KT 04/M08 A3023 RMK A01 T00441082  RH  039%=      5-min Rain = 0
KAD1 241651Z 06011KT 05/M08 A3023 RMK A01 T00451083  RH  039%=      5-min Rain = 0
KAD1 241652Z 06010KT 05/M08 A3023 RMK A01 T00471080  RH  039%=      5-min Rain = 0
KAD1 241653Z 04012KT 05/M08 A3023 RMK A01 T00471082  RH  039%=      5-min Rain = 0
KAD1 241654Z 04012KT 05/M08 A3023 RMK A01 T00461082  RH  039%=      5-min Rain = 0
KAD1 241655Z 04012KT 05/M08 A3023 RMK A01 T00471080  RH  039%=      5-min Rain = 0
KAD1 241656Z 06011KT 05/M08 A3023 RMK A01 T00471080  RH  039%=      5-min Rain = 0
KAD1 241657Z 04008KT 04/M08 A3023 RMK A01 T00441082  RH  039%=      5-min Rain = 0
KAD1 241658Z 04010KT 05/M08 A3023 RMK A01 T00461077  RH  040%=      5-min Rain = 0
KAD1 241659Z 03011KT 05/M08 A3023 RMK A01 T00481080  RH  039%=      5-min Rain = 0
KAD1 241700Z 02010KT 05/M08 A3023 RMK A01 T00451083  RH  039%=      5-min Rain = 0
KAD1 241701Z 03012KT 04/M09 A3023 RMK A01 T00431086  RH  039%=      5-min Rain = 0
KAD1 241702Z 03011KT 04/M09 A3023 RMK A01 T00441086  RH  038%=      5-min Rain = 0
KAD1 241703Z 05011KT 05/M08 A3023 RMK A01 T00461083  RH  038%=      5-min Rain = 0
KAD1 241704Z 05011KT 05/M09 A3023 RMK A01 T00471085  RH  038%=      5-min Rain = 0
KAD1 241705Z 04011KT 05/M08 A3023 RMK A01 T00481084  RH  038%=      5-min Rain = 0
KAD1 241706Z 04010KT 05/M09 A3023 RMK A01 T00471085  RH  038%=      5-min Rain = 0
KAD1 241707Z 04008KT 05/M08 A3023 RMK A01 T00481084  RH  038%=      5-min Rain = 0
KAD1 241708Z 06010KT 05/M08 A3023 RMK A01 T00491082  RH  038%=      5-min Rain = 0
KAD1 241709Z 06010KT 05/M08 A3023 RMK A01 T00511080  RH  038%=      5-min Rain = 0
KAD1 241710Z 04009KT 05/M08 A3023 RMK A01 T00501082  RH  038%=      5-min Rain = 0
KAD1 241711Z 04010KT 05/M08 A3023 RMK A01 T00531080  RH  038%=      5-min Rain = 0
KAD1 241712Z 04010KT 05/M08 A3023 RMK A01 T00521083  RH  037%=      5-min Rain = 0
KAD1 241713Z 02009KT 05/M09 A3023 RMK A01 T00501085  RH  037%=      5-min Rain = 0
KAD1 241714Z 04008KT 05/M09 A3023 RMK A01 T00481085  RH  038%=      5-min Rain = 0
KAD1 241715Z 05011KT 05/M08 A3023 RMK A01 T00521080  RH  038%=      5-min Rain = 0
KAD1 241716Z 05010KT 06/M08 A3023 RMK A01 T00551078  RH  038%=      5-min Rain = 0
KAD1 241717Z 04009KT 05/M08 A3023 RMK A01 T00531082  RH  037%=      5-min Rain = 0
KAD1 241718Z 05008KT 05/M08 A3023 RMK A01 T00501083  RH  037%=      5-min Rain = 0
KAD1 241719Z 05006KT 05/M09 A3023 RMK A01 T00471086  RH  038%=      5-min Rain = 0
KAD1 241720Z 05010KT 05/M08 A3023 RMK A01 T00481082  RH  039%=      5-min Rain = 0
KAD1 241721Z 04010KT 05/M09 A3023 RMK A01 T00501087  RH  036%=      5-min Rain = 0
KAD1 241722Z 03011KT 05/M09 A3023 RMK A01 T00491090  RH  036%=      5-min Rain = 0
KAD1 241723Z 02009KT 05/M09 A3023 RMK A01 T00501087  RH  036%=      5-min Rain = 0
KAD1 241724Z 03010KT 05/M09 A3023 RMK A01 T00491087  RH  036%=      5-min Rain = 0
KAD1 241725Z 01009KT 05/M09 A3023 RMK A01 T00491087  RH  037%=      5-min Rain = 0
KAD1 241726Z 02009KT 05/M09 A3023 RMK A01 T00481085  RH  037%=      5-min Rain = 0
KAD1 241727Z 02008KT 05/M08 A3023 RMK A01 T00491083  RH  038%=      5-min Rain = 0
KAD1 241728Z 03009KT 05/M08 A3023 RMK A01 T00501084  RH  037%=      5-min Rain = 0
KAD1 241729Z 05010KT 05/M09 A3023 RMK A01 T00521086  RH  036%=      5-min Rain = 0
KAD1 241730Z 06008KT 05/M09 A3023 RMK A01 T00521085  RH  036%=      5-min Rain = 0
KAD1 241731Z 04010KT 05/M09 A3023 RMK A01 T00531085  RH  036%=      5-min Rain = 0
KAD1 241732Z 03009KT 05/M09 A3023 RMK A01 T00521088  RH  036%=      5-min Rain = 0
KAD1 241733Z 03007KT 05/M08 A3023 RMK A01 T00531083  RH  037%=      5-min Rain = 0
KAD1 241734Z 03010KT 06/M08 A3023 RMK A01 T00571083  RH  036%=      5-min Rain = 0
KAD1 241735Z 03011KT 06/M08 A3023 RMK A01 T00571084  RH  035%=      5-min Rain = 0
KAD1 241736Z 03009KT 06/M08 A3023 RMK A01 T00581084  RH  035%=      5-min Rain = 0
KAD1 241737Z 03006KT 06/M08 A3023 RMK A01 T00591083  RH  035%=      5-min Rain = 0
KAD1 241738Z 06008KT 06/M09 A3023 RMK A01 T00561087  RH  035%=      5-min Rain = 0
KAD1 241739Z 05006KT 06/M09 A3023 RMK A01 T00551088  RH  035%=      5-min Rain = 0
KAD1 241740Z 05006KT 06/M08 A3023 RMK A01 T00551084  RH  036%=      5-min Rain = 0
KAD1 241741Z 06006KT 06/M08 A3023 RMK A01 T00571083  RH  036%=      5-min Rain = 0
KAD1 241742Z 05009KT 05/M09 A3023 RMK A01 T00541086  RH  036%=      5-min Rain = 0
KAD1 241743Z 05007KT 05/M08 A3023 RMK A01 T00531084  RH  036%=      5-min Rain = 0
KAD1 241744Z 03007KT 05/M08 A3023 RMK A01 T00531084  RH  036%=      5-min Rain = 0
KAD1 241745Z 02005KT 05/M09 A3023 RMK A01 T00531086  RH  036%=      5-min Rain = 0
KAD1 241746Z 02004KT 05/M09 A3023 RMK A01 T00521085  RH  036%=      5-min Rain = 0
KAD1 241747Z 08006KT 06/M08 A3023 RMK A01 T00571079  RH  037%=      5-min Rain = 0
KAD1 241748Z 06009KT 06/M08 A3023 RMK A01 T00581082  RH  036%=      5-min Rain = 0
KAD1 241749Z 06006KT 06/M09 A3023 RMK A01 T00561086  RH  035%=      5-min Rain = 0
KAD1 241750Z 07004KT 05/M09 A3023 RMK A01 T00531089  RH  035%=      5-min Rain = 0
KAD1 241751Z 05006G14KT 05/M09 A3023 RMK A01 T00531085  RH  036%=      5-min Rain = 0
KAD1 241752Z 02010KT 06/M08 A3023 RMK A01 T00581082  RH  036%=      5-min Rain = 0
KAD1 241753Z 03007KT 06/M09 A3023 RMK A01 T00561089  RH  034%=      5-min Rain = 0
KAD1 241754Z 03008KT 06/M09 A3022 RMK A01 T00551086  RH  035%=      5-min Rain = 0
KAD1 241755Z 04010KT 06/M08 A3022 RMK A01 T00571083  RH  036%=      5-min Rain = 0
KAD1 241756Z 05011KT 06/M08 A3022 RMK A01 T00611082  RH  035%=      5-min Rain = 0
KAD1 241757Z 06011KT 06/M08 A3022 RMK A01 T00641082  RH  034%=      5-min Rain = 0
KAD1 241758Z 05010KT 06/M08 A3022 RMK A01 T00641084  RH  034%=      5-min Rain = 0
KAD1 241759Z 04011KT 06/M09 A3022 RMK A01 T00631085  RH  034%=      5-min Rain = 0
KAD1 241800Z 03009KT 06/M09 A3022 RMK A01 T00611088  RH  034%=      5-min Rain = 0
KAD1 241801Z 02008KT 06/M09 A3022 RMK A01 T00591091  RH  033%=      5-min Rain = 0
KAD1 241802Z 04007KT 06/M09 A3022 RMK A01 T00591087  RH  034%=      5-min Rain = 0
KAD1 241803Z 05007KT 06/M09 A3022 RMK A01 T00621086  RH  034%=      5-min Rain = 0
KAD1 241804Z 03008KT 06/M09 A3022 RMK A01 T00611088  RH  034%=      5-min Rain = 0
KAD1 241805Z 02006KT 06/M09 A3022 RMK A01 T00611085  RH  034%=      5-min Rain = 0
KAD1 241806Z 03006KT 06/M09 A3022 RMK A01 T00611085  RH  034%=      5-min Rain = 0
KAD1 241807Z 07011KT 06/M09 A3022 RMK A01 T00621085  RH  034%=      5-min Rain = 0
KAD1 241808Z 07010KT 07/M09 A3022 RMK A01 T00681089  RH  032%=      5-min Rain = 0
KAD1 241809Z 07006KT 06/M10 A3022 RMK A01 T00641098  RH  030%=      5-min Rain = 0
KAD1 241810Z 08005KT 06/M10 A3022 RMK A01 T00601097  RH  031%=      5-min Rain = 0
KAD1 241811Z 07008KT 06/M09 A3022 RMK A01 T00621091  RH  032%=      5-min Rain = 0
KAD1 241812Z 09007KT 06/M09 A3022 RMK A01 T00631091  RH  032%=      5-min Rain = 0
KAD1 241813Z 08008KT 06/M09 A3021 RMK A01 T00621092  RH  032%=      5-min Rain = 0
KAD1 241814Z 07008KT 06/M09 A3021 RMK A01 T00621092  RH  032%=      5-min Rain = 0
KAD1 241815Z 04008G13KT 07/M09 A3021 RMK A01 T00651089  RH  032%=      5-min Rain = 0
KAD1 241816Z 06012KT 07/M09 A3021 RMK A01 T00701086  RH  032%=      5-min Rain = 0
KAD1 241817Z 05012KT 07/M09 A3021 RMK A01 T00701093  RH  030%=      5-min Rain = 0
KAD1 241818Z 04009KT 07/M10 A3021 RMK A01 T00691095  RH  030%=      5-min Rain = 0
KAD1 241819Z 05007KT 07/M09 A3021 RMK A01 T00701093  RH  030%=      5-min Rain = 0
KAD1 241820Z 05010KT 07/M09 A3021 RMK A01 T00731093  RH  030%=      5-min Rain = 0
KAD1 241821Z 07011KT 07/M10 A3021 RMK A01 T00701097  RH  029%=      5-min Rain = 0
KAD1 241822Z 08012KT 07/M10 A3021 RMK A01 T00701096  RH  030%=      5-min Rain = 0
KAD1 241823Z 08011KT 07/M10 A3021 RMK A01 T00691099  RH  029%=      5-min Rain = 0
KAD1 241824Z 08011KT 07/M10 A3021 RMK A01 T00681098  RH  030%=      5-min Rain = 0
KAD1 241825Z 07010KT 07/M10 A3021 RMK A01 T00671098  RH  030%=      5-min Rain = 0
KAD1 241826Z 06011KT 07/M10 A3021 RMK A01 T00661097  RH  030%=      5-min Rain = 0
KAD1 241827Z 07009KT 06/M10 A3021 RMK A01 T00641098  RH  030%=      5-min Rain = 0
KAD1 241828Z 07007KT 06/M10 A302 RMK A01 T00621096  RH  031%=      5-min Rain = 0
KAD1 241829Z 06013KT 07/M09 A302 RMK A01 T00681090  RH  031%=      5-min Rain = 0
KAD1 241830Z 06011KT 07/M10 A302 RMK A01 T00731095  RH  029%=      5-min Rain = 0
KAD1 241831Z 08012KT 07/M10 A302 RMK A01 T00741098  RH  028%=      5-min Rain = 0
KAD1 241832Z 07012KT 07/M10 A302 RMK A01 T00721101  RH  028%=      5-min Rain = 0
KAD1 241833Z 08009KT 07/M10 A302 RMK A01 T00721102  RH  028%=      5-min Rain = 0
KAD1 241834Z 10012KT 07/M10 A302 RMK A01 T00741099  RH  028%=      5-min Rain = 0
KAD1 241835Z 10011KT 07/M10 A302 RMK A01 T00741098  RH  028%=      5-min Rain = 0
KAD1 241836Z 08010KT 08/M09 A302 RMK A01 T00781092  RH  029%=      5-min Rain = 0
KAD1 241837Z 07010KT 08/M09 A302 RMK A01 T00781093  RH  029%=      5-min Rain = 0
KAD1 241838Z 09007KT 07/M10 A302 RMK A01 T00731099  RH  028%=      5-min Rain = 0
KAD1 241839Z 10010KT 07/M10 A302 RMK A01 T00701096  RH  029%=      5-min Rain = 0
KAD1 241840Z 10011KT 07/M09 A302 RMK A01 T00691093  RH  030%=      5-min Rain = 0
KAD1 241841Z 08008KT 07/M09 A302 RMK A01 T00691093  RH  030%=      5-min Rain = 0
KAD1 241842Z 06011KT 07/M09 A302 RMK A01 T00711091  RH  031%=      5-min Rain = 0
KAD1 241843Z 06012KT 07/M10 A302 RMK A01 T00711101  RH  028%=      5-min Rain = 0
KAD1 241844Z 05014KT 07/M10 A302 RMK A01 T00731101  RH  028%=      5-min Rain = 0
KAD1 241845Z 07010KT 08/M10 A302 RMK A01 T00751099  RH  028%=      5-min Rain = 0
KAD1 241846Z 07010KT 08/M09 A302 RMK A01 T00801093  RH  028%=      5-min Rain = 0
KAD1 241847Z 06008KT 08/M09 A302 RMK A01 T00811093  RH  028%=      5-min Rain = 0
KAD1 241848Z 07007KT 08/M10 A302 RMK A01 T00791098  RH  027%=      5-min Rain = 0
KAD1 241849Z 08008KT 08/M10 A302 RMK A01 T00761101  RH  027%=      5-min Rain = 0
KAD1 241850Z 09004G10KT 08/M10 A302 RMK A01 T00761100  RH  027%=      5-min Rain = 0
KAD1 241851Z 07004KT 08/M10 A302 RMK A01 T00751101  RH  027%=      5-min Rain = 0
KAD1 241852Z 05009KT 08/M10 A302 RMK A01 T00751098  RH  028%=      5-min Rain = 0
KAD1 241853Z 06010KT 08/M10 A302 RMK A01 T00761097  RH  028%=      5-min Rain = 0
KAD1 241854Z 09009KT 08/M10 A302 RMK A01 T00761098  RH  028%=      5-min Rain = 0
KAD1 241855Z 09010KT 08/M10 A302 RMK A01 T00791098  RH  027%=      5-min Rain = 0
KAD1 241856Z 09011KT 08/M10 A302 RMK A01 T00821096  RH  027%=      5-min Rain = 0
KAD1 241857Z 08010KT 08/M10 A302 RMK A01 T00791101  RH  027%=      5-min Rain = 0
KAD1 241858Z 07011KT 08/M10 A3019 RMK A01 T00781099  RH  027%=      5-min Rain = 0
KAD1 241859Z 09010KT 08/M10 A302 RMK A01 T00801098  RH  027%=      5-min Rain = 0
KAD1 241900Z 08010KT 08/M10 A302 RMK A01 T00801096  RH  027%=      5-min Rain = 0
KAD1 241901Z 08007KT 08/M10 A302 RMK A01 T00781099  RH  027%=      5-min Rain = 0
KAD1 241902Z 07006KT 08/M10 A302 RMK A01 T00761097  RH  028%=      5-min Rain = 0
KAD1 241903Z 07008KT 08/M09 A3019 RMK A01 T00791093  RH  028%=      5-min Rain = 0
KAD1 241904Z 08006KT 08/M10 A3019 RMK A01 T00801095  RH  028%=      5-min Rain = 0
KAD1 241905Z 08006KT 08/M10 A3019 RMK A01 T00781097  RH  028%=      5-min Rain = 0
KAD1 241906Z 10011KT 08/M09 A3019 RMK A01 T00801094  RH  028%=      5-min Rain = 0
KAD1 241907Z 08012KT 08/M09 A3019 RMK A01 T00841093  RH  028%=      5-min Rain = 0
KAD1 241908Z 09011KT 08/M10 A3019 RMK A01 T00811100  RH  027%=      5-min Rain = 0
KAD1 241909Z 10009KT 08/M10 A3019 RMK A01 T00801099  RH  027%=      5-min Rain = 0
KAD1 241910Z 10011KT 08/M10 A3019 RMK A01 T00811097  RH  027%=      5-min Rain = 0
KAD1 241911Z 10007KT 08/M10 A3019 RMK A01 T00801098  RH  027%=      5-min Rain = 0
KAD1 241912Z 11009KT 08/M10 A3019 RMK A01 T00801096  RH  028%=      5-min Rain = 0
KAD1 241913Z 11008KT 08/M10 A3019 RMK A01 T00821096  RH  027%=      5-min Rain = 0
KAD1 241914Z 11008KT 08/M10 A3019 RMK A01 T00831097  RH  027%=      5-min Rain = 0
KAD1 241915Z 09008KT 08/M10 A3019 RMK A01 T00821096  RH  027%=      5-min Rain = 0
KAD1 241916Z 11008KT 08/M10 A3019 RMK A01 T00831097  RH  027%=      5-min Rain = 0
KAD1 241917Z 10008KT 08/M10 A3019 RMK A01 T00821095  RH  027%=      5-min Rain = 0
KAD1 241918Z 10006KT 08/M10 A3019 RMK A01 T00801097  RH  027%=      5-min Rain = 0
KAD1 241919Z 12006KT 08/M10 A3019 RMK A01 T00781097  RH  028%=      5-min Rain = 0
KAD1 241920Z 12005KT 08/M10 A3019 RMK A01 T00791095  RH  028%=      5-min Rain = 0
KAD1 241921Z 08007KT 08/M09 A3019 RMK A01 T00811093  RH  028%=      5-min Rain = 0
KAD1 241922Z 06007KT 08/M09 A3019 RMK A01 T00831093  RH  028%=      5-min Rain = 0
KAD1 241923Z 06008KT 08/M09 A3019 RMK A01 T00831094  RH  027%=      5-min Rain = 0
KAD1 241924Z 09011KT 08/M09 A3019 RMK A01 T00841094  RH  027%=      5-min Rain = 0
KAD1 241925Z 10008KT 08/M10 A3019 RMK A01 T00811098  RH  027%=      5-min Rain = 0
KAD1 241926Z 10007KT 08/M10 A3019 RMK A01 T00781099  RH  027%=      5-min Rain = 0
KAD1 241927Z 08008KT 08/M09 A3018 RMK A01 T00831091  RH  028%=      5-min Rain = 0
KAD1 241928Z 09004KT 09/M09 A3018 RMK A01 T00851094  RH  027%=      5-min Rain = 0
KAD1 241929Z 09008KT 08/M09 A3018 RMK A01 T00831094  RH  028%=      5-min Rain = 0
KAD1 241930Z 07010KT 09/M09 A3018 RMK A01 T00851091  RH  028%=      5-min Rain = 0
KAD1 241931Z 06010KT 09/M09 A3018 RMK A01 T00851092  RH  027%=      5-min Rain = 0
KAD1 241932Z 05005KT 08/M10 A3018 RMK A01 T00821095  RH  027%=      5-min Rain = 0
KAD1 241933Z 05004KT 08/M10 A3018 RMK A01 T00801096  RH  028%=      5-min Rain = 0
KAD1 241934Z 09006KT 08/M09 A3018 RMK A01 T00801094  RH  028%=      5-min Rain = 0
KAD1 241935Z 09006KT 08/M09 A3018 RMK A01 T00841090  RH  028%=      5-min Rain = 0
KAD1 241936Z 08008KT 09/M09 A3018 RMK A01 T00871089  RH  028%=      5-min Rain = 0
KAD1 241937Z 09005G11KT 09/M09 A3018 RMK A01 T00881092  RH  027%=      5-min Rain = 0
KAD1 241938Z 07005KT 09/M10 A3018 RMK A01 T00871096  RH  026%=      5-min Rain = 0
KAD1 241939Z 06005KT 09/M09 A3017 RMK A01 T00871094  RH  027%=      5-min Rain = 0
KAD1 241940Z 08006KT 09/M09 A3017 RMK A01 T00861094  RH  027%=      5-min Rain = 0
KAD1 241941Z 11011KT 09/M09 A3017 RMK A01 T00891093  RH  027%=      5-min Rain = 0
KAD1 241942Z 10011KT 09/M10 A3017 RMK A01 T00901098  RH  025%=      5-min Rain = 0
KAD1 241943Z 10009KT 09/M10 A3017 RMK A01 T00881103  RH  025%=      5-min Rain = 0
KAD1 241944Z 12010KT 09/M10 A3017 RMK A01 T00881099  RH  025%=      5-min Rain = 0
KAD1 241945Z 11007KT 09/M10 A3017 RMK A01 T00881102  RH  025%=      5-min Rain = 0
KAD1 241946Z 12006KT 09/M10 A3017 RMK A01 T00861102  RH  025%=      5-min Rain = 0
KAD1 241947Z 08005KT 09/M10 A3017 RMK A01 T00851102  RH  025%=      5-min Rain = 0
KAD1 241948Z 04002KT 09/M10 A3017 RMK A01 T00861103  RH  025%=      5-min Rain = 0
KAD1 241949Z 07005KT 09/M10 A3017 RMK A01 T00851103  RH  025%=      5-min Rain = 0
KAD1 241950Z 08006KT 09/M10 A3017 RMK A01 T00851102  RH  025%=      5-min Rain = 0
KAD1 241951Z 08006KT 09/M10 A3017 RMK A01 T00861100  RH  026%=      5-min Rain = 0
KAD1 241952Z 09009KT 09/M10 A3017 RMK A01 T00861100  RH  026%=      5-min Rain = 0
KAD1 241953Z 09013KT 09/M10 A3017 RMK A01 T00871097  RH  026%=      5-min Rain = 0
KAD1 241954Z 10011KT 09/M10 A3017 RMK A01 T00881098  RH  026%=      5-min Rain = 0
KAD1 241955Z 11007KT 09/M10 A3017 RMK A01 T00861101  RH  026%=      5-min Rain = 0
KAD1 241956Z 08007KT 09/M10 A3017 RMK A01 T00851101  RH  026%=      5-min Rain = 0
KAD1 241957Z 06009KT 09/M10 A3017 RMK A01 T00851099  RH  026%=      5-min Rain = 0
KAD1 241958Z 07008KT 09/M10 A3017 RMK A01 T00891098  RH  026%=      5-min Rain = 0
KAD1 241959Z 09010KT 09/M10 A3017 RMK A01 T00911098  RH  025%=      5-min Rain = 0
KAD1 242000Z 12009KT 09/M10 A3017 RMK A01 T00901101  RH  025%=      5-min Rain = 0
KAD1 242001Z 10008KT 09/M10 A3017 RMK A01 T00911101  RH  025%=      5-min Rain = 0
KAD1 242002Z 08005KT 09/M10 A3017 RMK A01 T00911102  RH  024%=      5-min Rain = 0
KAD1 242003Z 12005KT 09/M10 A3016 RMK A01 T00881104  RH  024%=      5-min Rain = 0
KAD1 242004Z 12007KT 09/M10 A3016 RMK A01 T00891102  RH  025%=      5-min Rain = 0
KAD1 242005Z 10009KT 09/M10 A3016 RMK A01 T00881102  RH  025%=      5-min Rain = 0
KAD1 242006Z 10010KT 09/M10 A3016 RMK A01 T00871104  RH  025%=      5-min Rain = 0
KAD1 242007Z 09007KT 09/M10 A3016 RMK A01 T00871103  RH  025%=      5-min Rain = 0
KAD1 242008Z 10010KT 09/M10 A3016 RMK A01 T00881102  RH  025%=      5-min Rain = 0
KAD1 242009Z 09007KT 09/M10 A3016 RMK A01 T00871104  RH  025%=      5-min Rain = 0
KAD1 242010Z 09008KT 09/M10 A3016 RMK A01 T00861102  RH  025%=      5-min Rain = 0
KAD1 242011Z 06010KT 09/M10 A3016 RMK A01 T00901098  RH  025%=      5-min Rain = 0
KAD1 242012Z 09012KT 09/M10 A3016 RMK A01 T00911098  RH  025%=      5-min Rain = 0
KAD1 242013Z 10012KT 09/M10 A3016 RMK A01 T00931098  RH  025%=      5-min Rain = 0
KAD1 242014Z 08012KT 09/M10 A3016 RMK A01 T00921101  RH  025%=      5-min Rain = 0
KAD1 242015Z 08009KT 09/M10 A3016 RMK A01 T00941097  RH  025%=      5-min Rain = 0
KAD1 242016Z 08007KT 10/M10 A3016 RMK A01 T00981096  RH  024%=      5-min Rain = 0
KAD1 242017Z 08008KT 10/M10 A3015 RMK A01 T00961099  RH  024%=      5-min Rain = 0
KAD1 242018Z 09008G13KT 09/M10 A3015 RMK A01 T00941099  RH  024%=      5-min Rain = 0
KAD1 242019Z 12010KT 10/M10 A3015 RMK A01 T00951097  RH  025%=      5-min Rain = 0
KAD1 242020Z 12010KT 10/M10 A3015 RMK A01 T00961100  RH  024%=      5-min Rain = 0
KAD1 242021Z 11010KT 09/M10 A3015 RMK A01 T00931103  RH  024%=      5-min Rain = 0
KAD1 242022Z 13009KT 09/M10 A3015 RMK A01 T00911104  RH  024%=      5-min Rain = 0
KAD1 242023Z 13007KT 09/M10 A3015 RMK A01 T00901104  RH  024%=      5-min Rain = 0
KAD1 242024Z 10012KT 09/M10 A3015 RMK A01 T00921099  RH  025%=      5-min Rain = 0
KAD1 242025Z 10009KT 10/M10 A3015 RMK A01 T00951098  RH  025%=      5-min Rain = 0
KAD1 242026Z 11006KT 09/M10 A3015 RMK A01 T00941099  RH  025%=      5-min Rain = 0
KAD1 242027Z 10011KT 10/M10 A3015 RMK A01 T00971095  RH  025%=      5-min Rain = 0
KAD1 242028Z 09007KT 10/M10 A3015 RMK A01 T00951101  RH  024%=      5-min Rain = 0
KAD1 242029Z 10006KT 09/M11 A3015 RMK A01 T00901105  RH  024%=      5-min Rain = 0
KAD1 242030Z 12008KT 09/M10 A3015 RMK A01 T00911099  RH  025%=      5-min Rain = 0
KAD1 242031Z 14007KT 09/M10 A3015 RMK A01 T00931101  RH  024%=      5-min Rain = 0
KAD1 242032Z 11006KT 09/M10 A3015 RMK A01 T00911104  RH  024%=      5-min Rain = 0
KAD1 242033Z 08007KT 09/M10 A3015 RMK A01 T00901102  RH  025%=      5-min Rain = 0
KAD1 242034Z 06008KT 09/M10 A3015 RMK A01 T00911100  RH  025%=      5-min Rain = 0
KAD1 242035Z 08010KT 09/M10 A3015 RMK A01 T00931100  RH  025%=      5-min Rain = 0
KAD1 242036Z 09009KT 09/M10 A3015 RMK A01 T00941098  RH  025%=      5-min Rain = 0
KAD1 242037Z 11010KT 10/M10 A3015 RMK A01 T00951099  RH  024%=      5-min Rain = 0
KAD1 242038Z 13008KT 09/M10 A3015 RMK A01 T00941104  RH  024%=      5-min Rain = 0
KAD1 242039Z 11006KT 10/M10 A3014 RMK A01 T00971098  RH  024%=      5-min Rain = 0
KAD1 242040Z 10011G16KT 10/M09 A3014 RMK A01 T01011094  RH  024%=      5-min Rain = 0
KAD1 242041Z 09014KT 10/M10 A3014 RMK A01 T01011099  RH  024%=      5-min Rain = 0
KAD1 242042Z 08009KT 10/M10 A3014 RMK A01 T00951104  RH  023%=      5-min Rain = 0
KAD1 242043Z 09008KT 10/M10 A3014 RMK A01 T00951101  RH  024%=      5-min Rain = 0
KAD1 242044Z 09007KT 10/M10 A3014 RMK A01 T00961100  RH  024%=      5-min Rain = 0
KAD1 242045Z 09009KT 09/M10 A3014 RMK A01 T00941101  RH  024%=      5-min Rain = 0
KAD1 242046Z 09010KT 09/M10 A3014 RMK A01 T00941100  RH  024%=      5-min Rain = 0
KAD1 242047Z 10007KT 09/M10 A3014 RMK A01 T00931101  RH  024%=      5-min Rain = 0
KAD1 242048Z 09006KT 09/M10 A3014 RMK A01 T00921101  RH  024%=      5-min Rain = 0
KAD1 242049Z 08008G13KT 09/M10 A3014 RMK A01 T00921099  RH  025%=      5-min Rain = 0
KAD1 242050Z 10011KT 10/M09 A3014 RMK A01 T01001093  RH  025%=      5-min Rain = 0
KAD1 242051Z 09010KT 11/M10 A3014 RMK A01 T01061095  RH  023%=      5-min Rain = 0
KAD1 242052Z 09009KT 10/M10 A3014 RMK A01 T01021104  RH  022%=      5-min Rain = 0
KAD1 242053Z 06009KT 10/M10 A3014 RMK A01 T00991104  RH  023%=      5-min Rain = 0
KAD1 242054Z 06007KT 10/M10 A3014 RMK A01 T00981104  RH  023%=      5-min Rain = 0
KAD1 242055Z 08007KT 10/M11 A3014 RMK A01 T00971105  RH  023%=      5-min Rain = 0
KAD1 242056Z 10011KT 10/M10 A3014 RMK A01 T00961103  RH  023%=      5-min Rain = 0
KAD1 242057Z 09013KT 10/M11 A3014 RMK A01 T00961106  RH  023%=      5-min Rain = 0
KAD1 242058Z 09011KT 10/M11 A3014 RMK A01 T00951106  RH  023%=      5-min Rain = 0
KAD1 242059Z 09010KT 10/M11 A3014 RMK A01 T00951105  RH  023%=      5-min Rain = 0
KAD1 242100Z 11011KT 10/M11 A3014 RMK A01 T00951106  RH  023%=      5-min Rain = 0
KAD1 242101Z 12010KT 10/M10 A3014 RMK A01 T00981104  RH  023%=      5-min Rain = 0
KAD1 242102Z 13006KT 10/M11 A3014 RMK A01 T00961108  RH  022%=      5-min Rain = 0
KAD1 242103Z 09009KT 10/M11 A3014 RMK A01 T00961106  RH  023%=      5-min Rain = 0
KAD1 242104Z 09007KT 10/M11 A3014 RMK A01 T00961107  RH  023%=      5-min Rain = 0
KAD1 242105Z 09008KT 10/M11 A3014 RMK A01 T00961107  RH  023%=      5-min Rain = 0
KAD1 242106Z 13008G13KT 10/M11 A3014 RMK A01 T00971105  RH  023%=      5-min Rain = 0
KAD1 242107Z 14012KT 10/M10 A3014 RMK A01 T01001101  RH  023%=      5-min Rain = 0
KAD1 242108Z 11009KT 10/M10 A3014 RMK A01 T01011104  RH  023%=      5-min Rain = 0
KAD1 242109Z 10007KT 10/M11 A3014 RMK A01 T00981106  RH  023%=      5-min Rain = 0
KAD1 242110Z 09006KT 10/M11 A3014 RMK A01 T00971106  RH  023%=      5-min Rain = 0
KAD1 242111Z 08009KT 10/M10 A3014 RMK A01 T00981103  RH  023%=      5-min Rain = 0
KAD1 242112Z 07011KT 10/M10 A3014 RMK A01 T01011101  RH  023%=      5-min Rain = 0
KAD1 242113Z 08009KT 10/M10 A3014 RMK A01 T01021103  RH  022%=      5-min Rain = 0
KAD1 242114Z 10011KT 10/M10 A3014 RMK A01 T01021103  RH  022%=      5-min Rain = 0
KAD1 242115Z 11012KT 10/M10 A3014 RMK A01 T01031104  RH  022%=      5-min Rain = 0
KAD1 242116Z 11010KT 10/M11 A3014 RMK A01 T00991107  RH  022%=      5-min Rain = 0
KAD1 242117Z 11009KT 10/M11 A3014 RMK A01 T00991105  RH  023%=      5-min Rain = 0
KAD1 242118Z 13011KT 10/M11 A3014 RMK A01 T00991106  RH  022%=      5-min Rain = 0
KAD1 242119Z 12007KT 10/M11 A3014 RMK A01 T00981108  RH  022%=      5-min Rain = 0
KAD1 242120Z 11008KT 10/M11 A3014 RMK A01 T00981106  RH  023%=      5-min Rain = 0
KAD1 242121Z 13007KT 10/M11 A3014 RMK A01 T00991105  RH  023%=      5-min Rain = 0
KAD1 242122Z 14006KT 10/M11 A3014 RMK A01 T00991106  RH  023%=      5-min Rain = 0
KAD1 242123Z 13004KT 10/M11 A3014 RMK A01 T01001106  RH  022%=      5-min Rain = 0
KAD1 242124Z 10005KT 10/M11 A3014 RMK A01 T01001107  RH  022%=      5-min Rain = 0
KAD1 242125Z 11004KT 10/M11 A3014 RMK A01 T00981109  RH  022%=      5-min Rain = 0
KAD1 242126Z 09005KT 10/M11 A3014 RMK A01 T00971107  RH  022%=      5-min Rain = 0
KAD1 242127Z 10007KT 10/M11 A3014 RMK A01 T00991105  RH  023%=      5-min Rain = 0
KAD1 242128Z 10011KT 10/M10 A3014 RMK A01 T01011104  RH  023%=      5-min Rain = 0
KAD1 242129Z 09009KT 10/M11 A3014 RMK A01 T00991108  RH  022%=      5-min Rain = 0
KAD1 242130Z 10010KT 10/M11 A3013 RMK A01 T00971108  RH  022%=      5-min Rain = 0
KAD1 242131Z 10008KT 10/M11 A3013 RMK A01 T00971107  RH  023%=      5-min Rain = 0
KAD1 242132Z 10009KT 10/M10 A3013 RMK A01 T01001104  RH  023%=      5-min Rain = 0
KAD1 242133Z 10009KT 10/M11 A3013 RMK A01 T01001106  RH  022%=      5-min Rain = 0
KAD1 242134Z 11011KT 10/M10 A3013 RMK A01 T01011103  RH  023%=      5-min Rain = 0
KAD1 242135Z 13009KT 10/M10 A3013 RMK A01 T01041102  RH  022%=      5-min Rain = 0
KAD1 242136Z 11005KT 10/M10 A3013 RMK A01 T01041104  RH  022%=      5-min Rain = 0
KAD1 242137Z 13006KT 10/M11 A3013 RMK A01 T01021107  RH  022%=      5-min Rain = 0
KAD1 242138Z 12009KT 10/M11 A3013 RMK A01 T01001106  RH  022%=      5-min Rain = 0
KAD1 242139Z 11011KT 10/M10 A3013 RMK A01 T01021104  RH  022%=      5-min Rain = 0
KAD1 242140Z 11009KT 10/M11 A3013 RMK A01 T01021105  RH  022%=      5-min Rain = 0
KAD1 242141Z 12009KT 10/M11 A3013 RMK A01 T01021105  RH  022%=      5-min Rain = 0
KAD1 242142Z 11009KT 10/M10 A3013 RMK A01 T01041102  RH  022%=      5-min Rain = 0
KAD1 242143Z 12007KT 11/M10 A3013 RMK A01 T01071101  RH  022%=      5-min Rain = 0
KAD1 242144Z 09008KT 11/M10 A3013 RMK A01 T01081102  RH  022%=      5-min Rain = 0
KAD1 242145Z 10015KT 11/M10 A3013 RMK A01 T01081103  RH  022%=      5-min Rain = 0
KAD1 242146Z 10013KT 11/M11 A3013 RMK A01 T01061105  RH  022%=      5-min Rain = 0
KAD1 242147Z 10013KT 10/M11 A3013 RMK A01 T01041105  RH  022%=      5-min Rain = 0
KAD1 242148Z 10011KT 10/M11 A3013 RMK A01 T01031106  RH  022%=      5-min Rain = 0
KAD1 242149Z 12010KT 10/M11 A3013 RMK A01 T01001108  RH  022%=      5-min Rain = 0
KAD1 242150Z 11007KT 10/M11 A3013 RMK A01 T00981107  RH  022%=      5-min Rain = 0
KAD1 242151Z 11007KT 10/M10 A3013 RMK A01 T00991104  RH  023%=      5-min Rain = 0
KAD1 242152Z 13009KT 10/M11 A3013 RMK A01 T01001105  RH  022%=      5-min Rain = 0
KAD1 242153Z 13011KT 10/M11 A3013 RMK A01 T01001105  RH  023%=      5-min Rain = 0
KAD1 242154Z 14013KT 10/M10 A3013 RMK A01 T01031102  RH  022%=      5-min Rain = 0
KAD1 242155Z 15012KT 11/M10 A3013 RMK A01 T01051103  RH  022%=      5-min Rain = 0
KAD1 242156Z 14011KT 11/M10 A3013 RMK A01 T01051104  RH  022%=      5-min Rain = 0
KAD1 242157Z 15011KT 11/M11 A3013 RMK A01 T01051105  RH  022%=      5-min Rain = 0
KAD1 242158Z 16008KT 10/M11 A3013 RMK A01 T01021108  RH  022%=      5-min Rain = 0
KAD1 242159Z 16009KT 10/M10 A3013 RMK A01 T01031104  RH  022%=      5-min Rain = 0
KAD1 242200Z 16007KT 10/M11 A3013 RMK A01 T01031106  RH  022%=      5-min Rain = 0
KAD1 242201Z 15006KT 10/M11 A3013 RMK A01 T01021106  RH  022%=      5-min Rain = 0
KAD1 242202Z 12008KT 10/M11 A3013 RMK A01 T01021105  RH  022%=      5-min Rain = 0
KAD1 242203Z 11011KT 10/M10 A3013 RMK A01 T01021104  RH  022%=      5-min Rain = 0
KAD1 242204Z 12010KT 10/M10 A3013 RMK A01 T01021104  RH  022%=      5-min Rain = 0
KAD1 242205Z 13009KT 10/M10 A3013 RMK A01 T01041102  RH  022%=      5-min Rain = 0
KAD1 242206Z 13011KT 10/M10 A3013 RMK A01 T01041104  RH  022%=      5-min Rain = 0
KAD1 242207Z 13008KT 10/M10 A3013 RMK A01 T01031104  RH  022%=      5-min Rain = 0
KAD1 242208Z 13009KT 10/M11 A3013 RMK A01 T01021105  RH  022%=      5-min Rain = 0
KAD1 242209Z 12009KT 10/M10 A3013 RMK A01 T01021103  RH  022%=      5-min Rain = 0
KAD1 242210Z 11010KT 11/M10 A3013 RMK A01 T01051102  RH  022%=      5-min Rain = 0
KAD1 242211Z 10012KT 10/M10 A3013 RMK A01 T01041103  RH  022%=      5-min Rain = 0
KAD1 242212Z 09011KT 10/M10 A3013 RMK A01 T01031104  RH  022%=      5-min Rain = 0
KAD1 242213Z 09010KT 10/M10 A3013 RMK A01 T01031104  RH  022%=      5-min Rain = 0
KAD1 242214Z 08010KT 10/M10 A3013 RMK A01 T01011104  RH  022%=      5-min Rain = 0
KAD1 242215Z 09010KT 10/M10 A3013 RMK A01 T01031103  RH  022%=      5-min Rain = 0
KAD1 242216Z 11010G17KT 10/M10 A3013 RMK A01 T01041103  RH  022%=      5-min Rain = 0
KAD1 242217Z 12014KT 11/M10 A3013 RMK A01 T01051102  RH  022%=      5-min Rain = 0
KAD1 242218Z 13011KT 11/M10 A3013 RMK A01 T01061103  RH  022%=      5-min Rain = 0
KAD1 242219Z 14012KT 11/M10 A3013 RMK A01 T01071102  RH  022%=      5-min Rain = 0
KAD1 242220Z 14012KT 11/M10 A3013 RMK A01 T01061103  RH  022%=      5-min Rain = 0
KAD1 242221Z 14010KT 11/M10 A3013 RMK A01 T01061102  RH  022%=      5-min Rain = 0
KAD1 242222Z 15010KT 11/M10 A3013 RMK A01 T01061103  RH  022%=      5-min Rain = 0
KAD1 242223Z 13007KT 11/M10 A3013 RMK A01 T01051104  RH  022%=      5-min Rain = 0
KAD1 242224Z 13005KT 10/M11 A3013 RMK A01 T01031105  RH  022%=      5-min Rain = 0
KAD1 242225Z 15008KT 10/M10 A3013 RMK A01 T01031104  RH  022%=      5-min Rain = 0
KAD1 242226Z 15010KT 10/M10 A3012 RMK A01 T01041103  RH  022%=      5-min Rain = 0
KAD1 242227Z 13009KT 11/M10 A3012 RMK A01 T01051103  RH  022%=      5-min Rain = 0
KAD1 242228Z 15008KT 10/M11 A3012 RMK A01 T01041105  RH  022%=      5-min Rain = 0
KAD1 242229Z 17008KT 10/M11 A3012 RMK A01 T01021105  RH  022%=      5-min Rain = 0
KAD1 242230Z 13011KT 10/M10 A3012 RMK A01 T01031102  RH  023%=      5-min Rain = 0
KAD1 242231Z 14012KT 11/M10 A3012 RMK A01 T01071099  RH  022%=      5-min Rain = 0
KAD1 242232Z 15010KT 11/M10 A3012 RMK A01 T01071101  RH  022%=      5-min Rain = 0
KAD1 242233Z 15009KT 11/M10 A3012 RMK A01 T01091099  RH  022%=      5-min Rain = 0
KAD1 242234Z 16011KT 11/M10 A3012 RMK A01 T01091101  RH  022%=      5-min Rain = 0
KAD1 242235Z 16009KT 11/M10 A3012 RMK A01 T01091100  RH  022%=      5-min Rain = 0
KAD1 242236Z 16010KT 11/M10 A3012 RMK A01 T01081101  RH  022%=      5-min Rain = 0
KAD1 242237Z 15008G14KT 11/M10 A3012 RMK A01 T01071102  RH  022%=      5-min Rain = 0
KAD1 242238Z 15011KT 11/M10 A3012 RMK A01 T01071099  RH  023%=      5-min Rain = 0
KAD1 242239Z 15009KT 11/M10 A3012 RMK A01 T01071098  RH  023%=      5-min Rain = 0
KAD1 242240Z 14007KT 11/M10 A3012 RMK A01 T01071099  RH  023%=      5-min Rain = 0
KAD1 242241Z 14011KT 11/M10 A3012 RMK A01 T01061099  RH  023%=      5-min Rain = 0
KAD1 242242Z 14011KT 11/M10 A3012 RMK A01 T01071098  RH  023%=      5-min Rain = 0
KAD1 242243Z 15013KT 11/M10 A3012 RMK A01 T01101096  RH  023%=      5-min Rain = 0
KAD1 242244Z 15012KT 11/M10 A3012 RMK A01 T01081099  RH  022%=      5-min Rain = 0
KAD1 242245Z 15009KT 11/M10 A3012 RMK A01 T01061100  RH  022%=      5-min Rain = 0
KAD1 242246Z 16006KT 10/M10 A3012 RMK A01 T01041101  RH  023%=      5-min Rain = 0
KAD1 242247Z 14011KT 10/M10 A3012 RMK A01 T01041098  RH  023%=      5-min Rain = 0
KAD1 242248Z 14009KT 11/M10 A3012 RMK A01 T01051098  RH  023%=      5-min Rain = 0
KAD1 242249Z 14010G15KT 11/M10 A3012 RMK A01 T01051098  RH  023%=      5-min Rain = 0
KAD1 242250Z 14013KT 11/M10 A3012 RMK A01 T01051098  RH  023%=      5-min Rain = 0
KAD1 242251Z 13011KT 10/M10 A3012 RMK A01 T01041098  RH  023%=      5-min Rain = 0
KAD1 242252Z 12012KT 10/M10 A3012 RMK A01 T01031098  RH  023%=      5-min Rain = 0
KAD1 242253Z 12010KT 10/M10 A3012 RMK A01 T01031098  RH  023%=      5-min Rain = 0
KAD1 242254Z 11008KT 10/M10 A3012 RMK A01 T01021099  RH  023%=      5-min Rain = 0
KAD1 242255Z 10009KT 10/M10 A3012 RMK A01 T01021097  RH  024%=      5-min Rain = 0
KAD1 242256Z 10009KT 10/M10 A3012 RMK A01 T01031097  RH  023%=      5-min Rain = 0
KAD1 242257Z 12012KT 10/M10 A3012 RMK A01 T01031098  RH  023%=      5-min Rain = 0
KAD1 242258Z 13011KT 10/M10 A3012 RMK A01 T01031097  RH  023%=      5-min Rain = 0
KAD1 242259Z 12013KT 10/M10 A3012 RMK A01 T01041097  RH  023%=      5-min Rain = 0
KAD1 242300Z 12014KT 10/M10 A3012 RMK A01 T01041097  RH  023%=      5-min Rain = 0
KAD1 242301Z 14009KT 11/M10 A3012 RMK A01 T01051096  RH  023%=      5-min Rain = 0
KAD1 242302Z 12010KT 11/M10 A3012 RMK A01 T01071095  RH  023%=      5-min Rain = 0
KAD1 242303Z 12012KT 11/M10 A3012 RMK A01 T01061096  RH  023%=      5-min Rain = 0
KAD1 242304Z 13012KT 11/M10 A3012 RMK A01 T01051098  RH  023%=      5-min Rain = 0
KAD1 242305Z 13011KT 10/M10 A3012 RMK A01 T01041098  RH  023%=      5-min Rain = 0
KAD1 242306Z 11009KT 10/M10 A3012 RMK A01 T01021098  RH  023%=      5-min Rain = 0
KAD1 242307Z 11009KT 10/M10 A3012 RMK A01 T01011099  RH  023%=      5-min Rain = 0
KAD1 242308Z 11010KT 10/M10 A3012 RMK A01 T01001099  RH  024%=      5-min Rain = 0
KAD1 242309Z 12010KT 10/M10 A3012 RMK A01 T01011098  RH  024%=      5-min Rain = 0
KAD1 242310Z 11010KT 10/M10 A3012 RMK A01 T01021097  RH  024%=      5-min Rain = 0
KAD1 242311Z 11010KT 10/M10 A3012 RMK A01 T01021097  RH  024%=      5-min Rain = 0
KAD1 242312Z 12011KT 10/M10 A3012 RMK A01 T01021096  RH  024%=      5-min Rain = 0
KAD1 242313Z 12010KT 10/M10 A3012 RMK A01 T01031097  RH  023%=      5-min Rain = 0
KAD1 242314Z 13010KT 10/M10 A3012 RMK A01 T01031097  RH  023%=      5-min Rain = 0
KAD1 242315Z 15010KT 10/M10 A3012 RMK A01 T01031096  RH  024%=      5-min Rain = 0
KAD1 242316Z 15011KT 10/M10 A3012 RMK A01 T01031097  RH  023%=      5-min Rain = 0
KAD1 242317Z 13012KT 10/M10 A3012 RMK A01 T01031096  RH  024%=      5-min Rain = 0
KAD1 242318Z 14010KT 10/M10 A3012 RMK A01 T01031097  RH  023%=      5-min Rain = 0
KAD1 242319Z 14009KT 10/M10 A3012 RMK A01 T01031097  RH  023%=      5-min Rain = 0
KAD1 242320Z 13010KT 10/M10 A3012 RMK A01 T01021097  RH  024%=      5-min Rain = 0
KAD1 242321Z 13015KT 10/M10 A3012 RMK A01 T01021096  RH  024%=      5-min Rain = 0
KAD1 242322Z 13014KT 10/M10 A3012 RMK A01 T01021097  RH  024%=      5-min Rain = 0
KAD1 242323Z 13011KT 10/M10 A3012 RMK A01 T01021096  RH  024%=      5-min Rain = 0
KAD1 242324Z 14012KT 10/M10 A3012 RMK A01 T01021096  RH  024%=      5-min Rain = 0
KAD1 242325Z 14010KT 10/M10 A3012 RMK A01 T01031096  RH  024%=      5-min Rain = 0
KAD1 242326Z 13010KT 10/M10 A3012 RMK A01 T01031096  RH  024%=      5-min Rain = 0
KAD1 242327Z 12010KT 10/M10 A3012 RMK A01 T01031096  RH  024%=      5-min Rain = 0
KAD1 242328Z 13010KT 10/M10 A3012 RMK A01 T01031097  RH  023%=      5-min Rain = 0
KAD1 242329Z 13010KT 10/M10 A3012 RMK A01 T01021097  RH  024%=      5-min Rain = 0
KAD1 242330Z 13009KT 10/M10 A3012 RMK A01 T01021097  RH  024%=      5-min Rain = 0
KAD1 242331Z 13011KT 10/M10 A3012 RMK A01 T01011097  RH  024%=      5-min Rain = 0
KAD1 242332Z 12010KT 10/M10 A3012 RMK A01 T01011097  RH  024%=      5-min Rain = 0
KAD1 242333Z 12011KT 10/M10 A3012 RMK A01 T01011097  RH  024%=      5-min Rain = 0
KAD1 242334Z 12013KT 10/M10 A3012 RMK A01 T01001097  RH  024%=      5-min Rain = 0
KAD1 242335Z 12013KT 10/M10 A3012 RMK A01 T01011097  RH  024%=      5-min Rain = 0
KAD1 242336Z 12011KT 10/M10 A3012 RMK A01 T01011097  RH  024%=      5-min Rain = 0
KAD1 242337Z 13011KT 10/M10 A3012 RMK A01 T01011097  RH  024%=      5-min Rain = 0
KAD1 242338Z 12010KT 10/M10 A3012 RMK A01 T01011096  RH  024%=      5-min Rain = 0
KAD1 242339Z 12010KT 10/M10 A3012 RMK A01 T01011096  RH  024%=      5-min Rain = 0
KAD1 242340Z 12011KT 10/M10 A3012 RMK A01 T01021096  RH  024%=      5-min Rain = 0
KAD1 242341Z 13009KT 10/M10 A3013 RMK A01 T01011097  RH  024%=      5-min Rain = 0
KAD1 242342Z 13009KT 10/M10 A3013 RMK A01 T01001098  RH  024%=      5-min Rain = 0
KAD1 242343Z 13009KT 10/M10 A3013 RMK A01 T01001097  RH  024%=      5-min Rain = 0
KAD1 242344Z 13010KT 10/M10 A3013 RMK A01 T01001097  RH  024%=      5-min Rain = 0
KAD1 242345Z 12011KT 10/M10 A3013 RMK A01 T01011096  RH  024%=      5-min Rain = 0
KAD1 242346Z 11010KT 10/M10 A3013 RMK A01 T01011097  RH  024%=      5-min Rain = 0
KAD1 242347Z 11012KT 10/M10 A3013 RMK A01 T01011096  RH  024%=      5-min Rain = 0
KAD1 242348Z 13011KT 10/M10 A3013 RMK A01 T01001097  RH  024%=      5-min Rain = 0
KAD1 242349Z 13009KT 10/M10 A3013 RMK A01 T00991097  RH  024%=      5-min Rain = 0
KAD1 242350Z 12009KT 10/M10 A3013 RMK A01 T01001096  RH  024%=      5-min Rain = 0
KAD1 242351Z 12010KT 10/M10 A3013 RMK A01 T01001097  RH  024%=      5-min Rain = 0
KAD1 242352Z 13010KT 10/M10 A3013 RMK A01 T01001097  RH  024%=      5-min Rain = 0
KAD1 242353Z 13010KT 10/M10 A3013 RMK A01 T00991097  RH  024%=      5-min Rain = 0
KAD1 242354Z 13011KT 10/M10 A3013 RMK A01 T00991097  RH  024%=      5-min Rain = 0
KAD1 242355Z 12011KT 10/M10 A3013 RMK A01 T00991097  RH  024%=      5-min Rain = 0
KAD1 242356Z 13011KT 10/M10 A3013 RMK A01 T00981097  RH  024%=      5-min Rain = 0
KAD1 242357Z 13011KT 10/M10 A3013 RMK A01 T00981098  RH  024%=      5-min Rain = 0
KAD1 242358Z 12011KT 10/M10 A3013 RMK A01 T00971098  RH  024%=      5-min Rain = 0
KAD1 242359Z 12010KT 10/M10 A3013 RMK A01 T00971097  RH  024%=      5-min Rain = 0
KAD1 250000Z 12009KT 10/M10 A3013 RMK A01 T00971096  RH  025%=      5-min Rain = 0
KAD1 250001Z 12011KT 10/M10 A3013 RMK A01 T00971097  RH  024%=      5-min Rain = 0
KAD1 250002Z 12011KT 10/M10 A3013 RMK A01 T00971098  RH  024%=      5-min Rain = 0
KAD1 250003Z 12011KT 10/M10 A3013 RMK A01 T00961098  RH  024%=      5-min Rain = 0
KAD1 250004Z 12010KT 10/M10 A3013 RMK A01 T00961098  RH  024%=      5-min Rain = 0
KAD1 250005Z 12011KT 10/M10 A3013 RMK A01 T00961097  RH  024%=      5-min Rain = 0
KAD1 250006Z 12012KT 10/M10 A3013 RMK A01 T00961098  RH  024%=      5-min Rain = 0
KAD1 250007Z 11011KT 10/M10 A3013 RMK A01 T00951098  RH  024%=      5-min Rain = 0
KAD1 250008Z 11011KT 10/M10 A3013 RMK A01 T00951099  RH  024%=      5-min Rain = 0
KAD1 250009Z 12011KT 09/M10 A3013 RMK A01 T00941099  RH  025%=      5-min Rain = 0
KAD1 250010Z 12010KT 09/M10 A3013 RMK A01 T00941098  RH  025%=      5-min Rain = 0
KAD1 250011Z 12011KT 09/M10 A3013 RMK A01 T00941098  RH  025%=      5-min Rain = 0
KAD1 250012Z 12010KT 09/M10 A3013 RMK A01 T00931098  RH  025%=      5-min Rain = 0
KAD1 250013Z 12010KT 09/M10 A3013 RMK A01 T00931099  RH  025%=      5-min Rain = 0
KAD1 250014Z 12011KT 09/M10 A3013 RMK A01 T00931098  RH  025%=      5-min Rain = 0
KAD1 250015Z 12009KT 09/M10 A3013 RMK A01 T00921099  RH  025%=      5-min Rain = 0
KAD1 250016Z 12009KT 09/M10 A3013 RMK A01 T00911099  RH  025%=      5-min Rain = 0
KAD1 250017Z 12009KT 09/M10 A3013 RMK A01 T00911099  RH  025%=      5-min Rain = 0
KAD1 250018Z 12009KT 09/M10 A3013 RMK A01 T00911099  RH  025%=      5-min Rain = 0
KAD1 250019Z 12011KT 09/M10 A3013 RMK A01 T00901099  RH  025%=      5-min Rain = 0
KAD1 250020Z 12010KT 09/M10 A3013 RMK A01 T00891100  RH  025%=      5-min Rain = 0
KAD1 250021Z 11010KT 09/M10 A3013 RMK A01 T00891100  RH  025%=      5-min Rain = 0
KAD1 250022Z 11010KT 09/M10 A3013 RMK A01 T00881100  RH  025%=      5-min Rain = 0
KAD1 250023Z 11009KT 09/M10 A3013 RMK A01 T00871100  RH  026%=      5-min Rain = 0
KAD1 250024Z 11009KT 09/M10 A3013 RMK A01 T00861100  RH  026%=      5-min Rain = 0
KAD1 250025Z 11008KT 09/M10 A3013 RMK A01 T00851100  RH  026%=      5-min Rain = 0
KAD1 250026Z 11009KT 08/M10 A3013 RMK A01 T00831100  RH  026%=      5-min Rain = 0
KAD1 250027Z 11009KT 08/M10 A3013 RMK A01 T00821100  RH  026%=      5-min Rain = 0
KAD1 250028Z 11008KT 08/M10 A3013 RMK A01 T00811100  RH  027%=      5-min Rain = 0
KAD1 250029Z 11009KT 08/M10 A3013 RMK A01 T00801100  RH  027%=      5-min Rain = 0
KAD1 250030Z 12009KT 08/M10 A3013 RMK A01 T00801100  RH  027%=      5-min Rain = 0
KAD1 250031Z 12009KT 08/M10 A3013 RMK A01 T00791100  RH  027%=      5-min Rain = 0
KAD1 250032Z 12009KT 08/M10 A3013 RMK A01 T00781100  RH  027%=      5-min Rain = 0
KAD1 250033Z 12009KT 08/M10 A3013 RMK A01 T00771100  RH  027%=      5-min Rain = 0
KAD1 250034Z 12009KT 08/M10 A3013 RMK A01 T00761101  RH  027%=      5-min Rain = 0
KAD1 250035Z 12009KT 08/M10 A3014 RMK A01 T00761101  RH  027%=      5-min Rain = 0
KAD1 250036Z 12009KT 07/M10 A3014 RMK A01 T00741102  RH  027%=      5-min Rain = 0
KAD1 250037Z 12009KT 07/M10 A3014 RMK A01 T00741101  RH  028%=      5-min Rain = 0
KAD1 250038Z 12010KT 07/M10 A3014 RMK A01 T00721102  RH  028%=      5-min Rain = 0
KAD1 250039Z 12009KT 07/M10 A3014 RMK A01 T00721101  RH  028%=      5-min Rain = 0
KAD1 250040Z 12010KT 07/M10 A3014 RMK A01 T00711101  RH  028%=      5-min Rain = 0
KAD1 250041Z 11010KT 07/M10 A3014 RMK A01 T00701101  RH  028%=      5-min Rain = 0
KAD1 250042Z 11009KT 07/M10 A3014 RMK A01 T00701101  RH  028%=      5-min Rain = 0
KAD1 250043Z 11009KT 07/M10 A3014 RMK A01 T00691101  RH  029%=      5-min Rain = 0
KAD1 250044Z 11009KT 07/M10 A3014 RMK A01 T00681102  RH  029%=      5-min Rain = 0
KAD1 250045Z 11009KT 07/M10 A3014 RMK A01 T00671102  RH  029%=      5-min Rain = 0
KAD1 250046Z 11009KT 07/M10 A3014 RMK A01 T00661101  RH  029%=      5-min Rain = 0
KAD1 250047Z 11009KT 07/M10 A3014 RMK A01 T00651101  RH  029%=      5-min Rain = 0
KAD1 250048Z 11009KT 06/M10 A3014 RMK A01 T00631102  RH  030%=      5-min Rain = 0
KAD1 250049Z 11009KT 06/M10 A3014 RMK A01 T00621102  RH  030%=      5-min Rain = 0
KAD1 250050Z 11009KT 06/M10 A3014 RMK A01 T00601102  RH  030%=      5-min Rain = 0
KAD1 250051Z 11009KT 06/M10 A3014 RMK A01 T00591102  RH  031%=      5-min Rain = 0
KAD1 250052Z 11009KT 06/M10 A3014 RMK A01 T00571102  RH  031%=      5-min Rain = 0
KAD1 250053Z 11009KT 06/M10 A3014 RMK A01 T00561102  RH  031%=      5-min Rain = 0
KAD1 250054Z 11010KT 06/M10 A3014 RMK A01 T00551102  RH  031%=      5-min Rain = 0
KAD1 250055Z 11009KT 05/M10 A3014 RMK A01 T00541101  RH  032%=      5-min Rain = 0
KAD1 250056Z 11009KT 05/M10 A3014 RMK A01 T00541101  RH  032%=      5-min Rain = 0
KAD1 250057Z 11009KT 05/M10 A3014 RMK A01 T00531102  RH  032%=      5-min Rain = 0
KAD1 250058Z 11009KT 05/M10 A3014 RMK A01 T00521102  RH  032%=      5-min Rain = 0
KAD1 250059Z 11009KT 05/M10 A3014 RMK A01 T00521102  RH  032%=      5-min Rain = 0
KAD1 250100Z 11009KT 05/M10 A3014 RMK A01 T00511102  RH  032%=      5-min Rain = 0
KAD1 250101Z 11009KT 05/M10 A3014 RMK A01 T00501102  RH  032%=      5-min Rain = 0
KAD1 250102Z 11009KT 05/M10 A3014 RMK A01 T00491102  RH  033%=      5-min Rain = 0
KAD1 250103Z 11009KT 05/M10 A3014 RMK A01 T00481102  RH  033%=      5-min Rain = 0
KAD1 250104Z 11009KT 05/M10 A3014 RMK A01 T00461103  RH  033%=      5-min Rain = 0
KAD1 250105Z 11009KT 05/M10 A3014 RMK A01 T00451103  RH  033%=      5-min Rain = 0
KAD1 250106Z 11009KT 04/M10 A3014 RMK A01 T00441103  RH  033%=      5-min Rain = 0
KAD1 250107Z 11009KT 04/M10 A3014 RMK A01 T00441103  RH  034%=      5-min Rain = 0
KAD1 250108Z 11009KT 04/M10 A3014 RMK A01 T00431103  RH  034%=      5-min Rain = 0
KAD1 250109Z 11010KT 04/M10 A3014 RMK A01 T00421103  RH  034%=      5-min Rain = 0
KAD1 250110Z 11009KT 04/M10 A3014 RMK A01 T00421102  RH  034%=      5-min Rain = 0
KAD1 250111Z 11010KT 04/M10 A3014 RMK A01 T00421102  RH  034%=      5-min Rain = 0
KAD1 250112Z 11010KT 04/M10 A3014 RMK A01 T00421102  RH  034%=      5-min Rain = 0
KAD1 250113Z 11010KT 04/M10 A3014 RMK A01 T00431101  RH  034%=      5-min Rain = 0
KAD1 250114Z 11009KT 04/M10 A3014 RMK A01 T00421102  RH  034%=      5-min Rain = 0
KAD1 250115Z 11009KT 04/M10 A3014 RMK A01 T00411102  RH  035%=      5-min Rain = 0
KAD1 250116Z 11009KT 04/M10 A3014 RMK A01 T00401102  RH  035%=      5-min Rain = 0
KAD1 250117Z 11009KT 04/M10 A3014 RMK A01 T00401102  RH  035%=      5-min Rain = 0
KAD1 250118Z 11009KT 04/M10 A3014 RMK A01 T00391102  RH  035%=      5-min Rain = 0
KAD1 250119Z 11009KT 04/M10 A3014 RMK A01 T00381102  RH  035%=      5-min Rain = 0
KAD1 250120Z 11010KT 04/M10 A3014 RMK A01 T00381102  RH  035%=      5-min Rain = 0
KAD1 250121Z 11010KT 04/M10 A3015 RMK A01 T00381101  RH  036%=      5-min Rain = 0
KAD1 250122Z 11010KT 04/M10 A3015 RMK A01 T00371101  RH  036%=      5-min Rain = 0
KAD1 250123Z 11010KT 04/M10 A3015 RMK A01 T00371101  RH  036%=      5-min Rain = 0
KAD1 250124Z 11010KT 04/M10 A3014 RMK A01 T00361102  RH  036%=      5-min Rain = 0
KAD1 250125Z 11010KT 04/M10 A3014 RMK A01 T00351102  RH  036%=      5-min Rain = 0
KAD1 250126Z 11010KT 04/M10 A3014 RMK A01 T00351102  RH  036%=      5-min Rain = 0
KAD1 250127Z 11010KT 03/M10 A3014 RMK A01 T00341102  RH  036%=      5-min Rain = 0
KAD1 250128Z 11010KT 04/M10 A3014 RMK A01 T00351101  RH  036%=      5-min Rain = 0
KAD1 250129Z 11011KT 03/M10 A3015 RMK A01 T00341101  RH  036%=      5-min Rain = 0
KAD1 250130Z 11011KT 03/M10 A3015 RMK A01 T00341101  RH  036%=      5-min Rain = 0
KAD1 250131Z 11010KT 04/M10 A3015 RMK A01 T00351101  RH  036%=      5-min Rain = 0
KAD1 250132Z 11010KT 04/M10 A3015 RMK A01 T00351101  RH  036%=      5-min Rain = 0
KAD1 250133Z 11010KT 03/M10 A3015 RMK A01 T00341101  RH  036%=      5-min Rain = 0
KAD1 250134Z 11010KT 03/M10 A3015 RMK A01 T00341101  RH  036%=      5-min Rain = 0
KAD1 250135Z 11011KT 03/M10 A3015 RMK A01 T00341101  RH  037%=      5-min Rain = 0
KAD1 250136Z 11011KT 03/M10 A3015 RMK A01 T00341101  RH  037%=      5-min Rain = 0
KAD1 250137Z 11011KT 03/M10 A3015 RMK A01 T00341100  RH  037%=      5-min Rain = 0
KAD1 250138Z 11011KT 03/M10 A3015 RMK A01 T00341100  RH  037%=      5-min Rain = 0
KAD1 250139Z 11012KT 04/M10 A3015 RMK A01 T00351100  RH  037%=      5-min Rain = 0
KAD1 250140Z 11012KT 04/M10 A3015 RMK A01 T00351100  RH  037%=      5-min Rain = 0
KAD1 250141Z 11012KT 04/M10 A3015 RMK A01 T00361099  RH  036%=      5-min Rain = 0
KAD1 250142Z 11012KT 04/M10 A3015 RMK A01 T00361099  RH  036%=      5-min Rain = 0
KAD1 250143Z 11012KT 04/M10 A3015 RMK A01 T00371099  RH  036%=      5-min Rain = 0
KAD1 250144Z 11012KT 04/M10 A3015 RMK A01 T00371099  RH  036%=      5-min Rain = 0
KAD1 250145Z 11012KT 04/M10 A3015 RMK A01 T00371099  RH  036%=      5-min Rain = 0
KAD1 250146Z 11012KT 04/M10 A3015 RMK A01 T00371099  RH  036%=      5-min Rain = 0
KAD1 250147Z 11012KT 04/M10 A3015 RMK A01 T00371099  RH  036%=      5-min Rain = 0
KAD1 250148Z 11012KT 04/M10 A3015 RMK A01 T00371098  RH  036%=      5-min Rain = 0
KAD1 250149Z 11012KT 04/M10 A3015 RMK A01 T00371098  RH  036%=      5-min Rain = 0
KAD1 250150Z 11012KT 04/M10 A3015 RMK A01 T00371098  RH  036%=      5-min Rain = 0
KAD1 250151Z 11012KT 04/M10 A3015 RMK A01 T00371099  RH  036%=      5-min Rain = 0
KAD1 250152Z 11012KT 04/M10 A3015 RMK A01 T00371098  RH  036%=      5-min Rain = 0
KAD1 250153Z 11013KT 04/M10 A3015 RMK A01 T00381098  RH  036%=      5-min Rain = 0
KAD1 250154Z 11012KT 04/M10 A3015 RMK A01 T00381098  RH  036%=      5-min Rain = 0
KAD1 250155Z 12012KT 04/M10 A3015 RMK A01 T00381098  RH  036%=      5-min Rain = 0
KAD1 250156Z 11012KT 04/M10 A3015 RMK A01 T00381098  RH  036%=      5-min Rain = 0
KAD1 250157Z 11013KT 04/M10 A3015 RMK A01 T00381097  RH  036%=      5-min Rain = 0
KAD1 250158Z 11012KT 04/M10 A3015 RMK A01 T00381098  RH  036%=      5-min Rain = 0
KAD1 250159Z 11012KT 04/M10 A3015 RMK A01 T00381098  RH  036%=      5-min Rain = 0
KAD1 250200Z 11012KT 04/M10 A3015 RMK A01 T00381098  RH  036%=      5-min Rain = 0
KAD1 250201Z 12012KT 04/M10 A3015 RMK A01 T00381098  RH  036%=      5-min Rain = 0
KAD1 250202Z 12012KT 04/M10 A3016 RMK A01 T00381098  RH  036%=      5-min Rain = 0
KAD1 250203Z 11011KT 04/M10 A3016 RMK A01 T00381097  RH  037%=      5-min Rain = 0
KAD1 250204Z 11012KT 04/M10 A3016 RMK A01 T00371097  RH  037%=      5-min Rain = 0
KAD1 250205Z 12012KT 04/M10 A3016 RMK A01 T00371098  RH  037%=      5-min Rain = 0
KAD1 250206Z 11012KT 04/M10 A3016 RMK A01 T00361097  RH  037%=      5-min Rain = 0
KAD1 250207Z 11012KT 04/M10 A3016 RMK A01 T00361098  RH  037%=      5-min Rain = 0
KAD1 250208Z 12012KT 04/M10 A3016 RMK A01 T00351097  RH  037%=      5-min Rain = 0
KAD1 250209Z 12012KT 04/M10 A3016 RMK A01 T00361097  RH  037%=      5-min Rain = 0
KAD1 250210Z 11012KT 04/M10 A3016 RMK A01 T00351097  RH  037%=      5-min Rain = 0
KAD1 250211Z 12012KT 04/M10 A3016 RMK A01 T00351097  RH  037%=      5-min Rain = 0
KAD1 250212Z 12012KT 04/M10 A3016 RMK A01 T00351097  RH  037%=      5-min Rain = 0
KAD1 250213Z 11013KT 04/M10 A3016 RMK A01 T00351097  RH  037%=      5-min Rain = 0
KAD1 250214Z 12012KT 04/M10 A3016 RMK A01 T00351097  RH  037%=      5-min Rain = 0
KAD1 250215Z 11012KT 04/M10 A3016 RMK A01 T00351097  RH  037%=      5-min Rain = 0
KAD1 250216Z 11012KT 04/M10 A3016 RMK A01 T00351097  RH  037%=      5-min Rain = 0
KAD1 250217Z 11012KT 04/M10 A3016 RMK A01 T00351097  RH  037%=      5-min Rain = 0
KAD1 250218Z 11012KT 04/M10 A3016 RMK A01 T00351097  RH  037%=      5-min Rain = 0
KAD1 250219Z 11012KT 04/M10 A3016 RMK A01 T00351097  RH  037%=      5-min Rain = 0
KAD1 250220Z 11012KT 03/M10 A3015 RMK A01 T00341097  RH  038%=      5-min Rain = 0
KAD1 250221Z 11012KT 03/M10 A3015 RMK A01 T00341097  RH  038%=      5-min Rain = 0
KAD1 250222Z 11011KT 03/M10 A3015 RMK A01 T00331097  RH  038%=      5-min Rain = 0
KAD1 250223Z 11011KT 03/M10 A3015 RMK A01 T00321097  RH  038%=      5-min Rain = 0
KAD1 250224Z 11011KT 03/M10 A3015 RMK A01 T00311098  RH  038%=      5-min Rain = 0
KAD1 250225Z 11011KT 03/M10 A3016 RMK A01 T00311097  RH  038%=      5-min Rain = 0
KAD1 250226Z 11011KT 03/M10 A3016 RMK A01 T00311097  RH  039%=      5-min Rain = 0
KAD1 250227Z 11012KT 03/M10 A3016 RMK A01 T00301097  RH  039%=      5-min Rain = 0
KAD1 250228Z 11012KT 03/M10 A3016 RMK A01 T00301097  RH  039%=      5-min Rain = 0
KAD1 250229Z 11012KT 03/M10 A3016 RMK A01 T00301097  RH  039%=      5-min Rain = 0
KAD1 250230Z 11011KT 03/M10 A3016 RMK A01 T00301098  RH  039%=      5-min Rain = 0
KAD1 250231Z 11011KT 03/M10 A3016 RMK A01 T00301097  RH  039%=      5-min Rain = 0
KAD1 250232Z 11011KT 03/M10 A3016 RMK A01 T00301097  RH  039%=      5-min Rain = 0
KAD1 250233Z 11012KT 03/M10 A3016 RMK A01 T00291097  RH  039%=      5-min Rain = 0
KAD1 250234Z 11011KT 03/M10 A3016 RMK A01 T00291097  RH  039%=      5-min Rain = 0
KAD1 250235Z 11012KT 03/M10 A3016 RMK A01 T00281098  RH  039%=      5-min Rain = 0
KAD1 250236Z 11012KT 03/M10 A3016 RMK A01 T00281098  RH  039%=      5-min Rain = 0
KAD1 250237Z 11012KT 03/M10 A3016 RMK A01 T00281097  RH  039%=      5-min Rain = 0
KAD1 250238Z 11011KT 03/M10 A3016 RMK A01 T00271098  RH  039%=      5-min Rain = 0
KAD1 250239Z 11011KT 03/M10 A3016 RMK A01 T00271098  RH  039%=      5-min Rain = 0
KAD1 250240Z 11011KT 03/M10 A3016 RMK A01 T00271097  RH  039%=      5-min Rain = 0
KAD1 250241Z 11011KT 03/M10 A3016 RMK A01 T00271098  RH  039%=      5-min Rain = 0
KAD1 250242Z 11011KT 03/M10 A3016 RMK A01 T00261098  RH  040%=      5-min Rain = 0
KAD1 250243Z 11011KT 03/M10 A3016 RMK A01 T00261098  RH  040%=      5-min Rain = 0
KAD1 250244Z 11011KT 03/M10 A3016 RMK A01 T00251098  RH  040%=      5-min Rain = 0
KAD1 250245Z 10011KT 03/M10 A3016 RMK A01 T00261097  RH  040%=      5-min Rain = 0
KAD1 250246Z 11012KT 03/M10 A3016 RMK A01 T00251097  RH  040%=      5-min Rain = 0
KAD1 250247Z 11012KT 03/M10 A3016 RMK A01 T00251097  RH  040%=      5-min Rain = 0
KAD1 250248Z 11012KT 03/M10 A3016 RMK A01 T00251097  RH  040%=      5-min Rain = 0
KAD1 250249Z 11011KT 02/M10 A3016 RMK A01 T00241098  RH  040%=      5-min Rain = 0
KAD1 250250Z 11010KT 02/M10 A3016 RMK A01 T00231098  RH  040%=      5-min Rain = 0
KAD1 250251Z 11010KT 02/M10 A3016 RMK A01 T00211098  RH  041%=      5-min Rain = 0
KAD1 250252Z 11011KT 02/M10 A3016 RMK A01 T00211098  RH  041%=      5-min Rain = 0
KAD1 250253Z 11011KT 02/M10 A3016 RMK A01 T00201098  RH  041%=      5-min Rain = 0
KAD1 250254Z 11011KT 02/M10 A3016 RMK A01 T00201097  RH  042%=      5-min Rain = 0
KAD1 250255Z 11011KT 02/M10 A3016 RMK A01 T00191097  RH  042%=      5-min Rain = 0
KAD1 250256Z 11011KT 02/M10 A3016 RMK A01 T00191098  RH  042%=      5-min Rain = 0
KAD1 250257Z 11011KT 02/M10 A3016 RMK A01 T00181098  RH  042%=      5-min Rain = 0
KAD1 250258Z 11011KT 02/M10 A3016 RMK A01 T00181098  RH  042%=      5-min Rain = 0
KAD1 250259Z 11011KT 02/M10 A3016 RMK A01 T00171098  RH  042%=      5-min Rain = 0
KAD1 250300Z 11011KT 02/M10 A3016 RMK A01 T00161098  RH  042%=      5-min Rain = 0
KAD1 250301Z 11011KT 02/M10 A3016 RMK A01 T00161098  RH  043%=      5-min Rain = 0
KAD1 250302Z 11011KT 02/M10 A3016 RMK A01 T00161097  RH  043%=      5-min Rain = 0
KAD1 250303Z 11011KT 02/M10 A3016 RMK A01 T00161098  RH  043%=      5-min Rain = 0
KAD1 250304Z 11011KT 02/M10 A3016 RMK A01 T00151098  RH  043%=      5-min Rain = 0
KAD1 250305Z 10011KT 02/M10 A3016 RMK A01 T00151098  RH  043%=      5-min Rain = 0
KAD1 250306Z 10011KT 01/M10 A3016 RMK A01 T00141097  RH  043%=      5-min Rain = 0
KAD1 250307Z 11011KT 01/M10 A3016 RMK A01 T00141097  RH  043%=      5-min Rain = 0
KAD1 250308Z 10011KT 01/M10 A3016 RMK A01 T00141096  RH  044%=      5-min Rain = 0
KAD1 250309Z 11011KT 02/M10 A3016 RMK A01 T00151096  RH  044%=      5-min Rain = 0
KAD1 250310Z 11011KT 01/M10 A3016 RMK A01 T00141096  RH  044%=      5-min Rain = 0
KAD1 250311Z 11011KT 01/M10 A3017 RMK A01 T00131097  RH  044%=      5-min Rain = 0
KAD1 250312Z 11011KT 01/M10 A3017 RMK A01 T00121097  RH  044%=      5-min Rain = 0
KAD1 250313Z 11011KT 01/M10 A3017 RMK A01 T00121097  RH  044%=      5-min Rain = 0
KAD1 250314Z 11011KT 01/M10 A3017 RMK A01 T00111097  RH  044%=      5-min Rain = 0
KAD1 250315Z 11011KT 01/M10 A3017 RMK A01 T00101098  RH  044%=      5-min Rain = 0
KAD1 250316Z 11011KT 01/M10 A3017 RMK A01 T00091099  RH  044%=      5-min Rain = 0
KAD1 250317Z 11011KT 01/M10 A3017 RMK A01 T00081098  RH  045%=      5-min Rain = 0
KAD1 250318Z 11011KT 01/M10 A3017 RMK A01 T00081098  RH  045%=      5-min Rain = 0
KAD1 250319Z 11011KT 01/M10 A3017 RMK A01 T00091098  RH  045%=      5-min Rain = 0
KAD1 250320Z 11011KT 01/M10 A3017 RMK A01 T00091097  RH  045%=      5-min Rain = 0
KAD1 250321Z 11011KT 01/M10 A3017 RMK A01 T00101097  RH  045%=      5-min Rain = 0
KAD1 250322Z 11012KT 01/M10 A3017 RMK A01 T00111097  RH  044%=      5-min Rain = 0
KAD1 250323Z 11011KT 01/M10 A3017 RMK A01 T00121097  RH  044%=      5-min Rain = 0
KAD1 250324Z 12011KT 01/M10 A3017 RMK A01 T00121097  RH  044%=      5-min Rain = 0
KAD1 250325Z 11012KT 01/M10 A3017 RMK A01 T00131097  RH  044%=      5-min Rain = 0
KAD1 250326Z 12012KT 01/M10 A3017 RMK A01 T00141097  RH  043%=      5-min Rain = 0
KAD1 250327Z 12011KT 02/M10 A3017 RMK A01 T00151097  RH  043%=      5-min Rain = 0
KAD1 250328Z 12011KT 01/M10 A3017 RMK A01 T00141098  RH  043%=      5-min Rain = 0
KAD1 250329Z 12012KT 01/M10 A3017 RMK A01 T00141097  RH  043%=      5-min Rain = 0
KAD1 250330Z 11011KT 01/M10 A3018 RMK A01 T00131098  RH  043%=      5-min Rain = 0
KAD1 250331Z 11011KT 01/M10 A3018 RMK A01 T00131098  RH  044%=      5-min Rain = 0
KAD1 250332Z 11012KT 01/M10 A3018 RMK A01 T00121098  RH  044%=      5-min Rain = 0
KAD1 250333Z 12012KT 01/M10 A3018 RMK A01 T00121098  RH  044%=      5-min Rain = 0
KAD1 250334Z 12012KT 01/M10 A3018 RMK A01 T00121098  RH  044%=      5-min Rain = 0
KAD1 250335Z 12012KT 01/M10 A3018 RMK A01 T00121098  RH  044%=      5-min Rain = 0
KAD1 250336Z 12013KT 01/M10 A3018 RMK A01 T00131098  RH  043%=      5-min Rain = 0
KAD1 250337Z 11013KT 01/M10 A3018 RMK A01 T00141098  RH  043%=      5-min Rain = 0
KAD1 250338Z 11013KT 02/M10 A3018 RMK A01 T00161097  RH  043%=      5-min Rain = 0
KAD1 250339Z 11013KT 02/M10 A3018 RMK A01 T00161098  RH  042%=      5-min Rain = 0
KAD1 250340Z 12013KT 02/M10 A3018 RMK A01 T00171098  RH  042%=      5-min Rain = 0
KAD1 250341Z 12013KT 02/M10 A3018 RMK A01 T00181098  RH  042%=      5-min Rain = 0
KAD1 250342Z 12013KT 02/M10 A3018 RMK A01 T00171099  RH  042%=      5-min Rain = 0
KAD1 250343Z 12013KT 02/M10 A3018 RMK A01 T00171099  RH  042%=      5-min Rain = 0
KAD1 250344Z 12013KT 02/M10 A3018 RMK A01 T00171099  RH  042%=      5-min Rain = 0
KAD1 250345Z 11013KT 02/M10 A3018 RMK A01 T00171099  RH  042%=      5-min Rain = 0
KAD1 250346Z 11013KT 02/M10 A3018 RMK A01 T00171099  RH  042%=      5-min Rain = 0
KAD1 250347Z 11013KT 02/M10 A3018 RMK A01 T00171099  RH  042%=      5-min Rain = 0
KAD1 250348Z 11013KT 02/M10 A3018 RMK A01 T00171099  RH  042%=      5-min Rain = 0
KAD1 250349Z 11013KT 02/M10 A3018 RMK A01 T00171099  RH  042%=      5-min Rain = 0
KAD1 250350Z 11013KT 02/M10 A3018 RMK A01 T00171099  RH  042%=      5-min Rain = 0
KAD1 250351Z 11013KT 02/M10 A3018 RMK A01 T00161099  RH  042%=      5-min Rain = 0
KAD1 250352Z 11013KT 02/M10 A3018 RMK A01 T00161099  RH  042%=      5-min Rain = 0
KAD1 250353Z 11012KT 02/M10 A3018 RMK A01 T00161099  RH  042%=      5-min Rain = 0
KAD1 250354Z 11013KT 02/M10 A3018 RMK A01 T00161099  RH  042%=      5-min Rain = 0
KAD1 250355Z 11013KT 02/M10 A3018 RMK A01 T00171099  RH  042%=      5-min Rain = 0
KAD1 250356Z 11013KT 02/M10 A3018 RMK A01 T00181099  RH  042%=      5-min Rain = 0
KAD1 250357Z 11013KT 02/M10 A3018 RMK A01 T00171099  RH  042%=      5-min Rain = 0
KAD1 250358Z 11013KT 02/M10 A3018 RMK A01 T00171099  RH  042%=      5-min Rain = 0
KAD1 250359Z 11013KT 02/M10 A3018 RMK A01 T00181099  RH  042%=      5-min Rain = 0
KAD1 250400Z 11013KT 02/M10 A3018 RMK A01 T00181099  RH  041%=      5-min Rain = 0
KAD1 250401Z 11013KT 02/M10 A3018 RMK A01 T00191099  RH  041%=      5-min Rain = 0
KAD1 250402Z 11014KT 02/M10 A3018 RMK A01 T00191099  RH  041%=      5-min Rain = 0
KAD1 250403Z 11013KT 02/M10 A3018 RMK A01 T00191100  RH  041%=      5-min Rain = 0
KAD1 250404Z 11014KT 02/M10 A3018 RMK A01 T00181100  RH  041%=      5-min Rain = 0
KAD1 250405Z 11013KT 02/M10 A3018 RMK A01 T00191100  RH  041%=      5-min Rain = 0
KAD1 250406Z 11013KT 02/M10 A3018 RMK A01 T00191100  RH  041%=      5-min Rain = 0
KAD1 250407Z 11013KT 02/M10 A3019 RMK A01 T00191100  RH  041%=      5-min Rain = 0
KAD1 250408Z 11013KT 02/M10 A3019 RMK A01 T00191100  RH  041%=      5-min Rain = 0
KAD1 250409Z 11013KT 02/M10 A3019 RMK A01 T00191101  RH  041%=      5-min Rain = 0
KAD1 250410Z 11014KT 02/M10 A3019 RMK A01 T00191101  RH  041%=      5-min Rain = 0
KAD1 250411Z 11014KT 02/M10 A3019 RMK A01 T00201101  RH  040%=      5-min Rain = 0
KAD1 250412Z 11014KT 02/M10 A3019 RMK A01 T00211100  RH  040%=      5-min Rain = 0
KAD1 250413Z 12014KT 02/M10 A3019 RMK A01 T00211101  RH  040%=      5-min Rain = 0
KAD1 250414Z 12014KT 02/M10 A3019 RMK A01 T00211100  RH  040%=      5-min Rain = 0
KAD1 250415Z 12015KT 02/M10 A3019 RMK A01 T00211101  RH  040%=      5-min Rain = 0
KAD1 250416Z 12016KT 02/M10 A3019 RMK A01 T00211101  RH  040%=      5-min Rain = 0
KAD1 250417Z 12016KT 02/M10 A3019 RMK A01 T00221101  RH  040%=      5-min Rain = 0
KAD1 250418Z 12016KT 02/M10 A3019 RMK A01 T00231101  RH  040%=      5-min Rain = 0
KAD1 250419Z 12016KT 02/M10 A3019 RMK A01 T00231101  RH  040%=      5-min Rain = 0
KAD1 250420Z 12016KT 02/M10 A3019 RMK A01 T00231101  RH  039%=      5-min Rain = 0
KAD1 250421Z 12016KT 02/M10 A3019 RMK A01 T00231101  RH  039%=      5-min Rain = 0
KAD1 250422Z 12015KT 02/M10 A3019 RMK A01 T00231101  RH  039%=      5-min Rain = 0
KAD1 250423Z 12016KT 02/M10 A3019 RMK A01 T00231101  RH  039%=      5-min Rain = 0
KAD1 250424Z 12017KT 02/M10 A3019 RMK A01 T00231102  RH  039%=      5-min Rain = 0
KAD1 250425Z 12016KT 02/M10 A3019 RMK A01 T00241102  RH  039%=      5-min Rain = 0
KAD1 250426Z 12017KT 02/M10 A3019 RMK A01 T00241102  RH  039%=      5-min Rain = 0
KAD1 250427Z 12016KT 02/M10 A3019 RMK A01 T00231102  RH  039%=      5-min Rain = 0
KAD1 250428Z 12016KT 02/M10 A3019 RMK A01 T00221102  RH  039%=      5-min Rain = 0
KAD1 250429Z 12017KT 02/M10 A3019 RMK A01 T00221102  RH  039%=      5-min Rain = 0
KAD1 250430Z 12017KT 02/M10 A3019 RMK A01 T00221102  RH  039%=      5-min Rain = 0
KAD1 250431Z 12016KT 02/M10 A3019 RMK A01 T00221102  RH  039%=      5-min Rain = 0
KAD1 250432Z 12017KT 02/M10 A3019 RMK A01 T00221102  RH  039%=      5-min Rain = 0
KAD1 250433Z 12017KT 02/M10 A3019 RMK A01 T00231102  RH  039%=      5-min Rain = 0
KAD1 250434Z 12017KT 02/M10 A3019 RMK A01 T00221102  RH  039%=      5-min Rain = 0
KAD1 250435Z 12017KT 02/M10 A3019 RMK A01 T00231102  RH  039%=      5-min Rain = 0
KAD1 250436Z 12018KT 02/M10 A3019 RMK A01 T00221102  RH  039%=      5-min Rain = 0
KAD1 250437Z 12018KT 02/M10 A3018 RMK A01 T00221103  RH  039%=      5-min Rain = 0
KAD1 250438Z 12017KT 02/M10 A3018 RMK A01 T00231103  RH  039%=      5-min Rain = 0
KAD1 250439Z 11018KT 02/M10 A3018 RMK A01 T00221103  RH  039%=      5-min Rain = 0
KAD1 250440Z 12018KT 02/M10 A3018 RMK A01 T00231103  RH  039%=      5-min Rain = 0
KAD1 250441Z 12017KT 02/M10 A3018 RMK A01 T00231103  RH  039%=      5-min Rain = 0
KAD1 250442Z 12019KT 02/M10 A3018 RMK A01 T00221104  RH  039%=      5-min Rain = 0
KAD1 250443Z 12019KT 02/M10 A3018 RMK A01 T00221104  RH  039%=      5-min Rain = 0
KAD1 250444Z 12019KT 02/M10 A3018 RMK A01 T00221104  RH  039%=      5-min Rain = 0
KAD1 250445Z 12019KT 02/M10 A3017 RMK A01 T00221104  RH  039%=      5-min Rain = 0
KAD1 250446Z 12020KT 02/M10 A3017 RMK A01 T00231104  RH  039%=      5-min Rain = 0
KAD1 250447Z 12019KT 02/M10 A3017 RMK A01 T00231104  RH  038%=      5-min Rain = 0
KAD1 250448Z 12019KT 02/M10 A3017 RMK A01 T00231104  RH  038%=      5-min Rain = 0
KAD1 250449Z 12018KT 02/M10 A3017 RMK A01 T00231104  RH  039%=      5-min Rain = 0
KAD1 250450Z 12018KT 02/M10 A3017 RMK A01 T00221104  RH  039%=      5-min Rain = 0
KAD1 250451Z 12018KT 02/M10 A3017 RMK A01 T00221104  RH  039%=      5-min Rain = 0
KAD1 250452Z 12019KT 02/M10 A3017 RMK A01 T00221104  RH  039%=      5-min Rain = 0
KAD1 250453Z 12018KT 02/M10 A3017 RMK A01 T00211104  RH  039%=      5-min Rain = 0
KAD1 250454Z 12018KT 02/M10 A3017 RMK A01 T00221104  RH  039%=      5-min Rain = 0
KAD1 250455Z 12019KT 02/M10 A3017 RMK A01 T00211104  RH  039%=      5-min Rain = 0
KAD1 250456Z 12018KT 02/M10 A3017 RMK A01 T00211104  RH  039%=      5-min Rain = 0
KAD1 250457Z 12019KT 02/M10 A3017 RMK A01 T00211104  RH  039%=      5-min Rain = 0
KAD1 250458Z 12019KT 02/M10 A3017 RMK A01 T00211104  RH  039%=      5-min Rain = 0
KAD1 250459Z 12019KT 02/M10 A3017 RMK A01 T00201104  RH  039%=      5-min Rain = 0
KAD1 250500Z 12019KT 02/M10 A3017 RMK A01 T00211104  RH  039%=      5-min Rain = 0
KAD1 250501Z 12020KT 02/M10 A3017 RMK A01 T00211104  RH  039%=      5-min Rain = 0
KAD1 250502Z 12019KT 02/M10 A3017 RMK A01 T00211104  RH  039%=      5-min Rain = 0
KAD1 250503Z 12019KT 02/M10 A3017 RMK A01 T00221104  RH  039%=      5-min Rain = 0
KAD1 250504Z 12019KT 02/M10 A3017 RMK A01 T00211104  RH  039%=      5-min Rain = 0
KAD1 250505Z 12018KT 02/M10 A3017 RMK A01 T00211104  RH  039%=      5-min Rain = 0
KAD1 250506Z 12019KT 02/M10 A3017 RMK A01 T00201104  RH  039%=      5-min Rain = 0
KAD1 250507Z 12019KT 02/M10 A3017 RMK A01 T00201104  RH  039%=      5-min Rain = 0
KAD1 250508Z 12018KT 02/M10 A3017 RMK A01 T00191104  RH  040%=      5-min Rain = 0
KAD1 250509Z 12018KT 02/M10 A3017 RMK A01 T00191104  RH  040%=      5-min Rain = 0
KAD1 250510Z 12018KT 02/M10 A3017 RMK A01 T00191104  RH  040%=      5-min Rain = 0
KAD1 250511Z 12018KT 02/M10 A3017 RMK A01 T00181104  RH  040%=      5-min Rain = 0
KAD1 250512Z 12017KT 02/M10 A3017 RMK A01 T00181104  RH  040%=      5-min Rain = 0
KAD1 250513Z 12017KT 02/M10 A3017 RMK A01 T00181104  RH  040%=      5-min Rain = 0
KAD1 250514Z 12016KT 02/M10 A3017 RMK A01 T00171104  RH  040%=      5-min Rain = 0
KAD1 250515Z 12017KT 02/M10 A3017 RMK A01 T00161104  RH  040%=      5-min Rain = 0
KAD1 250516Z 12017KT 02/M10 A3017 RMK A01 T00151104  RH  041%=      5-min Rain = 0
KAD1 250517Z 12017KT 02/M10 A3017 RMK A01 T00161104  RH  041%=      5-min Rain = 0
KAD1 250518Z 12017KT 02/M10 A3017 RMK A01 T00151104  RH  041%=      5-min Rain = 0
KAD1 250519Z 12017KT 02/M10 A3017 RMK A01 T00151104  RH  041%=      5-min Rain = 0
KAD1 250520Z 12016KT 02/M10 A3017 RMK A01 T00151104  RH  041%=      5-min Rain = 0
KAD1 250521Z 12017KT 02/M10 A3017 RMK A01 T00151104  RH  041%=      5-min Rain = 0
KAD1 250522Z 12017KT 01/M10 A3017 RMK A01 T00141104  RH  041%=      5-min Rain = 0
KAD1 250523Z 12018KT 02/M10 A3017 RMK A01 T00151104  RH  041%=      5-min Rain = 0
KAD1 250524Z 12017KT 02/M10 A3017 RMK A01 T00151104  RH  041%=      5-min Rain = 0
KAD1 250525Z 12018KT 02/M10 A3017 RMK A01 T00161104  RH  041%=      5-min Rain = 0
KAD1 250526Z 12018KT 02/M10 A3017 RMK A01 T00171104  RH  040%=      5-min Rain = 0
KAD1 250527Z 12018KT 02/M10 A3017 RMK A01 T00171104  RH  040%=      5-min Rain = 0
KAD1 250528Z 12019KT 02/M10 A3017 RMK A01 T00171104  RH  040%=      5-min Rain = 0
KAD1 250529Z 12018KT 02/M11 A3017 RMK A01 T00171105  RH  040%=      5-min Rain = 0
KAD1 250530Z 12019KT 02/M11 A3017 RMK A01 T00171105  RH  040%=      5-min Rain = 0
KAD1 250531Z 12018KT 02/M11 A3017 RMK A01 T00171105  RH  040%=      5-min Rain = 0
KAD1 250532Z 12018KT 02/M11 A3017 RMK A01 T00171105  RH  040%=      5-min Rain = 0
KAD1 250533Z 12018KT 02/M11 A3017 RMK A01 T00171105  RH  040%=      5-min Rain = 0
KAD1 250534Z 12019KT 02/M11 A3018 RMK A01 T00171105  RH  040%=      5-min Rain = 0
KAD1 250535Z 12019KT 02/M11 A3018 RMK A01 T00171105  RH  040%=      5-min Rain = 0
KAD1 250536Z 12018KT 02/M11 A3018 RMK A01 T00161105  RH  040%=      5-min Rain = 0
KAD1 250537Z 12019KT 02/M11 A3018 RMK A01 T00161105  RH  040%=      5-min Rain = 0
KAD1 250538Z 12019KT 02/M11 A3018 RMK A01 T00161106  RH  040%=      5-min Rain = 0
KAD1 250539Z 12018KT 02/M11 A3018 RMK A01 T00161106  RH  040%=      5-min Rain = 0
KAD1 250540Z 12020KT 02/M11 A3018 RMK A01 T00161106  RH  040%=      5-min Rain = 0
KAD1 250541Z 12019KT 02/M11 A3018 RMK A01 T00161106  RH  040%=      5-min Rain = 0
KAD1 250542Z 12019KT 02/M11 A3017 RMK A01 T00161106  RH  040%=      5-min Rain = 0
KAD1 250543Z 12019KT 02/M11 A3017 RMK A01 T00161106  RH  040%=      5-min Rain = 0
KAD1 250544Z 12020KT 02/M11 A3017 RMK A01 T00171106  RH  040%=      5-min Rain = 0
KAD1 250545Z 12021KT 02/M11 A3017 RMK A01 T00171107  RH  039%=      5-min Rain = 0
KAD1 250546Z 12020KT 02/M11 A3017 RMK A01 T00171107  RH  039%=      5-min Rain = 0
KAD1 250547Z 12020KT 02/M11 A3017 RMK A01 T00171107  RH  039%=      5-min Rain = 0
KAD1 250548Z 12020KT 02/M11 A3017 RMK A01 T00171108  RH  039%=      5-min Rain = 0
KAD1 250549Z 12020KT 02/M11 A3017 RMK A01 T00171108  RH  039%=      5-min Rain = 0
KAD1 250550Z 12020KT 02/M11 A3017 RMK A01 T00181108  RH  039%=      5-min Rain = 0
KAD1 250551Z 12020KT 02/M11 A3017 RMK A01 T00181108  RH  039%=      5-min Rain = 0
KAD1 250552Z 12019KT 02/M11 A3018 RMK A01 T00171109  RH  039%=      5-min Rain = 0
KAD1 250553Z 12019KT 02/M11 A3018 RMK A01 T00161109  RH  039%=      5-min Rain = 0
KAD1 250554Z 12019KT 02/M11 A3018 RMK A01 T00161109  RH  039%=      5-min Rain = 0
KAD1 250555Z 12019KT 02/M11 A3018 RMK A01 T00161109  RH  039%=      5-min Rain = 0
KAD1 250556Z 12019G24KT 02/M11 A3018 RMK A01 T00161109  RH  039%=      5-min Rain = 0
KAD1 250557Z 12019G24KT 02/M11 A3018 RMK A01 T00161109  RH  039%=      5-min Rain = 0
KAD1 250558Z 12021KT 02/M11 A3018 RMK A01 T00161109  RH  039%=      5-min Rain = 0
KAD1 250559Z 12019KT 02/M11 A3018 RMK A01 T00161109  RH  039%=      5-min Rain = 0

Page generated in 0.0648 seconds.